<?xml version="1.0" encoding="UTF-8" standalone="no" ?>
<gpx xmlns="http://www.topografix.com/GPX/1/1" xmlns:xsi="http://www.w3.org/2001/XMLSchema-instance" xsi:schemaLocation="http://www.topografix.com/GPX/1/1 http://www.topografix.com/GPX/1/1/gpx.xsd" version="1.1" creator="VisuGPX - https://www.visugpx.com">
  <metadata>
    <name>rando forêt de hez</name>
    <desc><![CDATA[petite ballade du dimanche]]></desc>
  </metadata>
  <trk>
    <name><![CDATA[utgtrack-6761]]></name>
    <trkseg>
      <trkpt lat="49.37936" lon="2.32312">
        <ele>152</ele>
        <time>2012-07-23T09:29:02Z</time>
      </trkpt>
      <trkpt lat="49.37937" lon="2.32313">
        <ele>152</ele>
        <time>2012-07-23T09:29:52Z</time>
      </trkpt>
      <trkpt lat="49.37937" lon="2.3229">
        <ele>153</ele>
        <time>2012-07-23T09:30:09Z</time>
      </trkpt>
      <trkpt lat="49.37938" lon="2.32282">
        <ele>153</ele>
        <time>2012-07-23T09:30:11Z</time>
      </trkpt>
      <trkpt lat="49.37941" lon="2.32263">
        <ele>153</ele>
        <time>2012-07-23T09:30:15Z</time>
      </trkpt>
      <trkpt lat="49.37943" lon="2.32253">
        <ele>153</ele>
        <time>2012-07-23T09:30:17Z</time>
      </trkpt>
      <trkpt lat="49.37946" lon="2.3223">
        <ele>152</ele>
        <time>2012-07-23T09:30:21Z</time>
      </trkpt>
      <trkpt lat="49.37948" lon="2.32218">
        <ele>152</ele>
        <time>2012-07-23T09:30:23Z</time>
      </trkpt>
      <trkpt lat="49.37953" lon="2.32192">
        <ele>152</ele>
        <time>2012-07-23T09:30:27Z</time>
      </trkpt>
      <trkpt lat="49.37956" lon="2.32171">
        <ele>151</ele>
        <time>2012-07-23T09:30:30Z</time>
      </trkpt>
      <trkpt lat="49.3796" lon="2.32152">
        <ele>151</ele>
        <time>2012-07-23T09:30:33Z</time>
      </trkpt>
      <trkpt lat="49.37964" lon="2.32131">
        <ele>151</ele>
        <time>2012-07-23T09:30:36Z</time>
      </trkpt>
      <trkpt lat="49.37966" lon="2.32111">
        <ele>152</ele>
        <time>2012-07-23T09:30:39Z</time>
      </trkpt>
      <trkpt lat="49.37968" lon="2.32096">
        <ele>152</ele>
        <time>2012-07-23T09:30:42Z</time>
      </trkpt>
      <trkpt lat="49.3797" lon="2.32088">
        <ele>152</ele>
        <time>2012-07-23T09:30:43Z</time>
      </trkpt>
      <trkpt lat="49.37972" lon="2.32052">
        <ele>153</ele>
        <time>2012-07-23T09:30:48Z</time>
      </trkpt>
      <trkpt lat="49.37982" lon="2.32043">
        <ele>153</ele>
        <time>2012-07-23T09:30:51Z</time>
      </trkpt>
      <trkpt lat="49.3799" lon="2.32038">
        <ele>153</ele>
        <time>2012-07-23T09:30:53Z</time>
      </trkpt>
      <trkpt lat="49.38004" lon="2.32033">
        <ele>153</ele>
        <time>2012-07-23T09:30:57Z</time>
      </trkpt>
      <trkpt lat="49.38014" lon="2.32028">
        <ele>153</ele>
        <time>2012-07-23T09:31:00Z</time>
      </trkpt>
      <trkpt lat="49.38024" lon="2.32021">
        <ele>153</ele>
        <time>2012-07-23T09:31:04Z</time>
      </trkpt>
      <trkpt lat="49.38034" lon="2.32012">
        <ele>153</ele>
        <time>2012-07-23T09:31:07Z</time>
      </trkpt>
      <trkpt lat="49.38043" lon="2.32004">
        <ele>153</ele>
        <time>2012-07-23T09:31:09Z</time>
      </trkpt>
      <trkpt lat="49.38051" lon="2.31998">
        <ele>155</ele>
        <time>2012-07-23T09:31:12Z</time>
      </trkpt>
      <trkpt lat="49.38054" lon="2.31996">
        <ele>155</ele>
        <time>2012-07-23T09:31:14Z</time>
      </trkpt>
      <trkpt lat="49.3807" lon="2.31985">
        <ele>155</ele>
        <time>2012-07-23T09:31:19Z</time>
      </trkpt>
      <trkpt lat="49.38079" lon="2.31976">
        <ele>155</ele>
        <time>2012-07-23T09:31:21Z</time>
      </trkpt>
      <trkpt lat="49.38091" lon="2.31965">
        <ele>155</ele>
        <time>2012-07-23T09:31:24Z</time>
      </trkpt>
      <trkpt lat="49.38103" lon="2.31956">
        <ele>155</ele>
        <time>2012-07-23T09:31:27Z</time>
      </trkpt>
      <trkpt lat="49.38115" lon="2.3195">
        <ele>155</ele>
        <time>2012-07-23T09:31:30Z</time>
      </trkpt>
      <trkpt lat="49.38128" lon="2.31946">
        <ele>155</ele>
        <time>2012-07-23T09:31:34Z</time>
      </trkpt>
      <trkpt lat="49.38139" lon="2.31947">
        <ele>155</ele>
        <time>2012-07-23T09:31:36Z</time>
      </trkpt>
      <trkpt lat="49.38156" lon="2.3194">
        <ele>155</ele>
        <time>2012-07-23T09:31:39Z</time>
      </trkpt>
      <trkpt lat="49.3817" lon="2.31935">
        <ele>156</ele>
        <time>2012-07-23T09:31:43Z</time>
      </trkpt>
      <trkpt lat="49.38182" lon="2.3193">
        <ele>156</ele>
        <time>2012-07-23T09:31:46Z</time>
      </trkpt>
      <trkpt lat="49.3819" lon="2.31928">
        <ele>156</ele>
        <time>2012-07-23T09:31:47Z</time>
      </trkpt>
      <trkpt lat="49.38207" lon="2.31925">
        <ele>157</ele>
        <time>2012-07-23T09:31:51Z</time>
      </trkpt>
      <trkpt lat="49.38219" lon="2.31925">
        <ele>158</ele>
        <time>2012-07-23T09:31:54Z</time>
      </trkpt>
      <trkpt lat="49.38227" lon="2.31929">
        <ele>158</ele>
        <time>2012-07-23T09:31:56Z</time>
      </trkpt>
      <trkpt lat="49.38243" lon="2.31934">
        <ele>159</ele>
        <time>2012-07-23T09:32:01Z</time>
      </trkpt>
      <trkpt lat="49.38257" lon="2.31936">
        <ele>160</ele>
        <time>2012-07-23T09:32:03Z</time>
      </trkpt>
      <trkpt lat="49.38272" lon="2.31942">
        <ele>160</ele>
        <time>2012-07-23T09:32:06Z</time>
      </trkpt>
      <trkpt lat="49.38283" lon="2.31942">
        <ele>161</ele>
        <time>2012-07-23T09:32:09Z</time>
      </trkpt>
      <trkpt lat="49.38294" lon="2.31938">
        <ele>161</ele>
        <time>2012-07-23T09:32:12Z</time>
      </trkpt>
      <trkpt lat="49.38306" lon="2.31936">
        <ele>162</ele>
        <time>2012-07-23T09:32:16Z</time>
      </trkpt>
      <trkpt lat="49.38309" lon="2.31935">
        <ele>162</ele>
        <time>2012-07-23T09:32:17Z</time>
      </trkpt>
      <trkpt lat="49.38338" lon="2.3194">
        <ele>163</ele>
        <time>2012-07-23T09:32:22Z</time>
      </trkpt>
      <trkpt lat="49.38345" lon="2.31941">
        <ele>163</ele>
        <time>2012-07-23T09:32:23Z</time>
      </trkpt>
      <trkpt lat="49.38368" lon="2.31946">
        <ele>162</ele>
        <time>2012-07-23T09:32:27Z</time>
      </trkpt>
      <trkpt lat="49.38395" lon="2.31955">
        <ele>162</ele>
        <time>2012-07-23T09:32:32Z</time>
      </trkpt>
      <trkpt lat="49.38411" lon="2.31951">
        <ele>162</ele>
        <time>2012-07-23T09:32:35Z</time>
      </trkpt>
      <trkpt lat="49.38423" lon="2.31946">
        <ele>161</ele>
        <time>2012-07-23T09:32:37Z</time>
      </trkpt>
      <trkpt lat="49.38438" lon="2.31938">
        <ele>161</ele>
        <time>2012-07-23T09:32:40Z</time>
      </trkpt>
      <trkpt lat="49.38453" lon="2.31939">
        <ele>161</ele>
        <time>2012-07-23T09:32:42Z</time>
      </trkpt>
      <trkpt lat="49.38475" lon="2.31931">
        <ele>161</ele>
        <time>2012-07-23T09:32:47Z</time>
      </trkpt>
      <trkpt lat="49.38481" lon="2.31928">
        <ele>161</ele>
        <time>2012-07-23T09:32:47Z</time>
      </trkpt>
      <trkpt lat="49.3851" lon="2.31911">
        <ele>159</ele>
        <time>2012-07-23T09:32:52Z</time>
      </trkpt>
      <trkpt lat="49.38521" lon="2.3191">
        <ele>158</ele>
        <time>2012-07-23T09:32:56Z</time>
      </trkpt>
      <trkpt lat="49.38528" lon="2.31903">
        <ele>157</ele>
        <time>2012-07-23T09:32:59Z</time>
      </trkpt>
      <trkpt lat="49.38535" lon="2.31896">
        <ele>157</ele>
        <time>2012-07-23T09:33:01Z</time>
      </trkpt>
      <trkpt lat="49.3854" lon="2.31891">
        <ele>156</ele>
        <time>2012-07-23T09:33:03Z</time>
      </trkpt>
      <trkpt lat="49.38553" lon="2.31889">
        <ele>156</ele>
        <time>2012-07-23T09:33:07Z</time>
      </trkpt>
      <trkpt lat="49.38562" lon="2.31889">
        <ele>155</ele>
        <time>2012-07-23T09:33:11Z</time>
      </trkpt>
      <trkpt lat="49.38573" lon="2.31891">
        <ele>154</ele>
        <time>2012-07-23T09:33:14Z</time>
      </trkpt>
      <trkpt lat="49.38577" lon="2.31892">
        <ele>154</ele>
        <time>2012-07-23T09:33:14Z</time>
      </trkpt>
      <trkpt lat="49.38603" lon="2.319">
        <ele>150</ele>
        <time>2012-07-23T09:33:19Z</time>
      </trkpt>
      <trkpt lat="49.38618" lon="2.31903">
        <ele>149</ele>
        <time>2012-07-23T09:33:21Z</time>
      </trkpt>
      <trkpt lat="49.38641" lon="2.31906">
        <ele>148</ele>
        <time>2012-07-23T09:33:26Z</time>
      </trkpt>
      <trkpt lat="49.38654" lon="2.31906">
        <ele>148</ele>
        <time>2012-07-23T09:33:27Z</time>
      </trkpt>
      <trkpt lat="49.38677" lon="2.31917">
        <ele>146</ele>
        <time>2012-07-23T09:33:31Z</time>
      </trkpt>
      <trkpt lat="49.38697" lon="2.31916">
        <ele>146</ele>
        <time>2012-07-23T09:33:35Z</time>
      </trkpt>
      <trkpt lat="49.38719" lon="2.31913">
        <ele>146</ele>
        <time>2012-07-23T09:33:39Z</time>
      </trkpt>
      <trkpt lat="49.38723" lon="2.31909">
        <ele>146</ele>
        <time>2012-07-23T09:33:39Z</time>
      </trkpt>
      <trkpt lat="49.38729" lon="2.31878">
        <ele>146</ele>
        <time>2012-07-23T09:33:44Z</time>
      </trkpt>
      <trkpt lat="49.3873" lon="2.31863">
        <ele>147</ele>
        <time>2012-07-23T09:33:46Z</time>
      </trkpt>
      <trkpt lat="49.38737" lon="2.3184">
        <ele>147</ele>
        <time>2012-07-23T09:33:51Z</time>
      </trkpt>
      <trkpt lat="49.38741" lon="2.31819">
        <ele>149</ele>
        <time>2012-07-23T09:33:54Z</time>
      </trkpt>
      <trkpt lat="49.38745" lon="2.31807">
        <ele>149</ele>
        <time>2012-07-23T09:33:56Z</time>
      </trkpt>
      <trkpt lat="49.38747" lon="2.31782">
        <ele>150</ele>
        <time>2012-07-23T09:34:00Z</time>
      </trkpt>
      <trkpt lat="49.3875" lon="2.3176">
        <ele>150</ele>
        <time>2012-07-23T09:34:02Z</time>
      </trkpt>
      <trkpt lat="49.38753" lon="2.31745">
        <ele>151</ele>
        <time>2012-07-23T09:34:05Z</time>
      </trkpt>
      <trkpt lat="49.38756" lon="2.31721">
        <ele>151</ele>
        <time>2012-07-23T09:34:07Z</time>
      </trkpt>
      <trkpt lat="49.38763" lon="2.31696">
        <ele>152</ele>
        <time>2012-07-23T09:34:12Z</time>
      </trkpt>
      <trkpt lat="49.38765" lon="2.31676">
        <ele>152</ele>
        <time>2012-07-23T09:34:15Z</time>
      </trkpt>
      <trkpt lat="49.3877" lon="2.31661">
        <ele>153</ele>
        <time>2012-07-23T09:34:17Z</time>
      </trkpt>
      <trkpt lat="49.38772" lon="2.31655">
        <ele>153</ele>
        <time>2012-07-23T09:34:19Z</time>
      </trkpt>
      <trkpt lat="49.38774" lon="2.31632">
        <ele>154</ele>
        <time>2012-07-23T09:34:23Z</time>
      </trkpt>
      <trkpt lat="49.38777" lon="2.31623">
        <ele>154</ele>
        <time>2012-07-23T09:34:25Z</time>
      </trkpt>
      <trkpt lat="49.38783" lon="2.31599">
        <ele>154</ele>
        <time>2012-07-23T09:34:30Z</time>
      </trkpt>
      <trkpt lat="49.38783" lon="2.31575">
        <ele>156</ele>
        <time>2012-07-23T09:34:33Z</time>
      </trkpt>
      <trkpt lat="49.38787" lon="2.31554">
        <ele>157</ele>
        <time>2012-07-23T09:34:35Z</time>
      </trkpt>
      <trkpt lat="49.38792" lon="2.31538">
        <ele>158</ele>
        <time>2012-07-23T09:34:39Z</time>
      </trkpt>
      <trkpt lat="49.38793" lon="2.31533">
        <ele>158</ele>
        <time>2012-07-23T09:34:39Z</time>
      </trkpt>
      <trkpt lat="49.38789" lon="2.31502">
        <ele>158</ele>
        <time>2012-07-23T09:34:45Z</time>
      </trkpt>
      <trkpt lat="49.38792" lon="2.31492">
        <ele>160</ele>
        <time>2012-07-23T09:34:47Z</time>
      </trkpt>
      <trkpt lat="49.38797" lon="2.31482">
        <ele>161</ele>
        <time>2012-07-23T09:34:48Z</time>
      </trkpt>
      <trkpt lat="49.38812" lon="2.31435">
        <ele>161</ele>
        <time>2012-07-23T09:34:53Z</time>
      </trkpt>
      <trkpt lat="49.38821" lon="2.31384">
        <ele>160</ele>
        <time>2012-07-23T09:34:58Z</time>
      </trkpt>
      <trkpt lat="49.38827" lon="2.31325">
        <ele>157</ele>
        <time>2012-07-23T09:35:05Z</time>
      </trkpt>
      <trkpt lat="49.38832" lon="2.31279">
        <ele>157</ele>
        <time>2012-07-23T09:35:10Z</time>
      </trkpt>
      <trkpt lat="49.38844" lon="2.31212">
        <ele>156</ele>
        <time>2012-07-23T09:35:18Z</time>
      </trkpt>
      <trkpt lat="49.38851" lon="2.31156">
        <ele>155</ele>
        <time>2012-07-23T09:35:25Z</time>
      </trkpt>
      <trkpt lat="49.38868" lon="2.31094">
        <ele>155</ele>
        <time>2012-07-23T09:35:30Z</time>
      </trkpt>
      <trkpt lat="49.38873" lon="2.31036">
        <ele>153</ele>
        <time>2012-07-23T09:35:36Z</time>
      </trkpt>
      <trkpt lat="49.38879" lon="2.30992">
        <ele>152</ele>
        <time>2012-07-23T09:35:40Z</time>
      </trkpt>
      <trkpt lat="49.38898" lon="2.30916">
        <ele>152</ele>
        <time>2012-07-23T09:35:49Z</time>
      </trkpt>
      <trkpt lat="49.38913" lon="2.30881">
        <ele>152</ele>
        <time>2012-07-23T09:35:55Z</time>
      </trkpt>
      <trkpt lat="49.38914" lon="2.30847">
        <ele>154</ele>
        <time>2012-07-23T09:36:00Z</time>
      </trkpt>
      <trkpt lat="49.38909" lon="2.30843">
        <ele>154</ele>
        <time>2012-07-23T09:36:09Z</time>
      </trkpt>
      <trkpt lat="49.38912" lon="2.30812">
        <ele>154</ele>
        <time>2012-07-23T09:36:57Z</time>
      </trkpt>
      <trkpt lat="49.38914" lon="2.30771">
        <ele>154</ele>
        <time>2012-07-23T09:37:02Z</time>
      </trkpt>
      <trkpt lat="49.3892" lon="2.30701">
        <ele>153</ele>
        <time>2012-07-23T09:37:10Z</time>
      </trkpt>
      <trkpt lat="49.38936" lon="2.30638">
        <ele>148</ele>
        <time>2012-07-23T09:37:17Z</time>
      </trkpt>
      <trkpt lat="49.38946" lon="2.30585">
        <ele>146</ele>
        <time>2012-07-23T09:37:23Z</time>
      </trkpt>
      <trkpt lat="49.38948" lon="2.30553">
        <ele>142</ele>
        <time>2012-07-23T09:37:28Z</time>
      </trkpt>
      <trkpt lat="49.38964" lon="2.30503">
        <ele>140</ele>
        <time>2012-07-23T09:37:50Z</time>
      </trkpt>
      <trkpt lat="49.38973" lon="2.30472">
        <ele>136</ele>
        <time>2012-07-23T09:37:53Z</time>
      </trkpt>
      <trkpt lat="49.3898" lon="2.30415">
        <ele>129</ele>
        <time>2012-07-23T09:38:01Z</time>
      </trkpt>
      <trkpt lat="49.38987" lon="2.30366">
        <ele>128</ele>
        <time>2012-07-23T09:38:07Z</time>
      </trkpt>
      <trkpt lat="49.39006" lon="2.30281">
        <ele>115</ele>
        <time>2012-07-23T09:38:14Z</time>
      </trkpt>
      <trkpt lat="49.39007" lon="2.30237">
        <ele>112</ele>
        <time>2012-07-23T09:38:19Z</time>
      </trkpt>
      <trkpt lat="49.39012" lon="2.30195">
        <ele>109</ele>
        <time>2012-07-23T09:38:24Z</time>
      </trkpt>
      <trkpt lat="49.39032" lon="2.30098">
        <ele>103</ele>
        <time>2012-07-23T09:38:32Z</time>
      </trkpt>
      <trkpt lat="49.39038" lon="2.30054">
        <ele>100</ele>
        <time>2012-07-23T09:38:37Z</time>
      </trkpt>
      <trkpt lat="49.39045" lon="2.30013">
        <ele>99</ele>
        <time>2012-07-23T09:38:42Z</time>
      </trkpt>
      <trkpt lat="49.39055" lon="2.2996">
        <ele>96</ele>
        <time>2012-07-23T09:38:50Z</time>
      </trkpt>
      <trkpt lat="49.39064" lon="2.29916">
        <ele>95</ele>
        <time>2012-07-23T09:38:55Z</time>
      </trkpt>
      <trkpt lat="49.39079" lon="2.29856">
        <ele>95</ele>
        <time>2012-07-23T09:39:02Z</time>
      </trkpt>
      <trkpt lat="49.39079" lon="2.29814">
        <ele>94</ele>
        <time>2012-07-23T09:39:07Z</time>
      </trkpt>
      <trkpt lat="49.39096" lon="2.2973">
        <ele>89</ele>
        <time>2012-07-23T09:39:14Z</time>
      </trkpt>
      <trkpt lat="49.39097" lon="2.29699">
        <ele>87</ele>
        <time>2012-07-23T09:39:21Z</time>
      </trkpt>
      <trkpt lat="49.39101" lon="2.29674">
        <ele>87</ele>
        <time>2012-07-23T09:40:07Z</time>
      </trkpt>
      <trkpt lat="49.3908" lon="2.29663">
        <ele>86</ele>
        <time>2012-07-23T09:40:33Z</time>
      </trkpt>
      <trkpt lat="49.3907" lon="2.29645">
        <ele>86</ele>
        <time>2012-07-23T09:40:38Z</time>
      </trkpt>
      <trkpt lat="49.3905" lon="2.29604">
        <ele>86</ele>
        <time>2012-07-23T09:40:46Z</time>
      </trkpt>
      <trkpt lat="49.39026" lon="2.29562">
        <ele>84</ele>
        <time>2012-07-23T09:40:51Z</time>
      </trkpt>
      <trkpt lat="49.39004" lon="2.29519">
        <ele>83</ele>
        <time>2012-07-23T09:40:57Z</time>
      </trkpt>
      <trkpt lat="49.3899" lon="2.29493">
        <ele>86</ele>
        <time>2012-07-23T09:41:03Z</time>
      </trkpt>
      <trkpt lat="49.38976" lon="2.2947">
        <ele>87</ele>
        <time>2012-07-23T09:41:08Z</time>
      </trkpt>
      <trkpt lat="49.38956" lon="2.29435">
        <ele>88</ele>
        <time>2012-07-23T09:41:15Z</time>
      </trkpt>
      <trkpt lat="49.38937" lon="2.29401">
        <ele>88</ele>
        <time>2012-07-23T09:41:22Z</time>
      </trkpt>
      <trkpt lat="49.38925" lon="2.29382">
        <ele>88</ele>
        <time>2012-07-23T09:41:27Z</time>
      </trkpt>
      <trkpt lat="49.38919" lon="2.29365">
        <ele>88</ele>
        <time>2012-07-23T09:41:33Z</time>
      </trkpt>
      <trkpt lat="49.38918" lon="2.29352">
        <ele>89</ele>
        <time>2012-07-23T09:41:39Z</time>
      </trkpt>
      <trkpt lat="49.38923" lon="2.29325">
        <ele>89</ele>
        <time>2012-07-23T09:41:46Z</time>
      </trkpt>
      <trkpt lat="49.38899" lon="2.2929">
        <ele>95</ele>
        <time>2012-07-23T09:41:52Z</time>
      </trkpt>
      <trkpt lat="49.3889" lon="2.29268">
        <ele>95</ele>
        <time>2012-07-23T09:41:57Z</time>
      </trkpt>
      <trkpt lat="49.38882" lon="2.29243">
        <ele>95</ele>
        <time>2012-07-23T09:42:04Z</time>
      </trkpt>
      <trkpt lat="49.38869" lon="2.29222">
        <ele>96</ele>
        <time>2012-07-23T09:42:09Z</time>
      </trkpt>
      <trkpt lat="49.38859" lon="2.29184">
        <ele>96</ele>
        <time>2012-07-23T09:42:16Z</time>
      </trkpt>
      <trkpt lat="49.38846" lon="2.29151">
        <ele>96</ele>
        <time>2012-07-23T09:42:21Z</time>
      </trkpt>
      <trkpt lat="49.38833" lon="2.29112">
        <ele>101</ele>
        <time>2012-07-23T09:42:26Z</time>
      </trkpt>
      <trkpt lat="49.38815" lon="2.29066">
        <ele>99</ele>
        <time>2012-07-23T09:42:33Z</time>
      </trkpt>
      <trkpt lat="49.388" lon="2.29022">
        <ele>98</ele>
        <time>2012-07-23T09:42:40Z</time>
      </trkpt>
      <trkpt lat="49.38792" lon="2.28994">
        <ele>96</ele>
        <time>2012-07-23T09:42:45Z</time>
      </trkpt>
      <trkpt lat="49.38774" lon="2.2895">
        <ele>96</ele>
        <time>2012-07-23T09:42:52Z</time>
      </trkpt>
      <trkpt lat="49.38752" lon="2.28904">
        <ele>95</ele>
        <time>2012-07-23T09:42:57Z</time>
      </trkpt>
      <trkpt lat="49.38714" lon="2.28852">
        <ele>93</ele>
        <time>2012-07-23T09:43:05Z</time>
      </trkpt>
      <trkpt lat="49.38675" lon="2.28849">
        <ele>91</ele>
        <time>2012-07-23T09:43:10Z</time>
      </trkpt>
      <trkpt lat="49.38641" lon="2.28857">
        <ele>88</ele>
        <time>2012-07-23T09:43:17Z</time>
      </trkpt>
      <trkpt lat="49.38619" lon="2.28833">
        <ele>83</ele>
        <time>2012-07-23T09:43:23Z</time>
      </trkpt>
      <trkpt lat="49.38591" lon="2.28779">
        <ele>80</ele>
        <time>2012-07-23T09:43:29Z</time>
      </trkpt>
      <trkpt lat="49.38566" lon="2.28737">
        <ele>78</ele>
        <time>2012-07-23T09:43:34Z</time>
      </trkpt>
      <trkpt lat="49.38538" lon="2.28692">
        <ele>78</ele>
        <time>2012-07-23T09:43:41Z</time>
      </trkpt>
      <trkpt lat="49.3852" lon="2.2866">
        <ele>78</ele>
        <time>2012-07-23T09:43:47Z</time>
      </trkpt>
      <trkpt lat="49.38515" lon="2.28645">
        <ele>78</ele>
        <time>2012-07-23T09:43:52Z</time>
      </trkpt>
      <trkpt lat="49.3849" lon="2.286">
        <ele>81</ele>
        <time>2012-07-23T09:45:21Z</time>
      </trkpt>
      <trkpt lat="49.38473" lon="2.28565">
        <ele>81</ele>
        <time>2012-07-23T09:45:27Z</time>
      </trkpt>
      <trkpt lat="49.38462" lon="2.28547">
        <ele>82</ele>
        <time>2012-07-23T09:45:31Z</time>
      </trkpt>
      <trkpt lat="49.3844" lon="2.28501">
        <ele>82</ele>
        <time>2012-07-23T09:45:39Z</time>
      </trkpt>
      <trkpt lat="49.38428" lon="2.28476">
        <ele>81</ele>
        <time>2012-07-23T09:45:43Z</time>
      </trkpt>
      <trkpt lat="49.38398" lon="2.28426">
        <ele>83</ele>
        <time>2012-07-23T09:45:51Z</time>
      </trkpt>
      <trkpt lat="49.38379" lon="2.284">
        <ele>83</ele>
        <time>2012-07-23T09:45:57Z</time>
      </trkpt>
      <trkpt lat="49.38367" lon="2.28382">
        <ele>83</ele>
        <time>2012-07-23T09:46:02Z</time>
      </trkpt>
      <trkpt lat="49.38349" lon="2.28351">
        <ele>84</ele>
        <time>2012-07-23T09:46:09Z</time>
      </trkpt>
      <trkpt lat="49.38341" lon="2.28337">
        <ele>84</ele>
        <time>2012-07-23T09:46:13Z</time>
      </trkpt>
      <trkpt lat="49.38331" lon="2.28307">
        <ele>88</ele>
        <time>2012-07-23T09:46:21Z</time>
      </trkpt>
      <trkpt lat="49.38321" lon="2.28281">
        <ele>89</ele>
        <time>2012-07-23T09:46:26Z</time>
      </trkpt>
      <trkpt lat="49.38317" lon="2.28237">
        <ele>88</ele>
        <time>2012-07-23T09:46:33Z</time>
      </trkpt>
      <trkpt lat="49.38314" lon="2.28186">
        <ele>89</ele>
        <time>2012-07-23T09:46:40Z</time>
      </trkpt>
      <trkpt lat="49.38305" lon="2.28146">
        <ele>88</ele>
        <time>2012-07-23T09:46:46Z</time>
      </trkpt>
      <trkpt lat="49.38296" lon="2.281">
        <ele>88</ele>
        <time>2012-07-23T09:46:52Z</time>
      </trkpt>
      <trkpt lat="49.38284" lon="2.2807">
        <ele>87</ele>
        <time>2012-07-23T09:46:56Z</time>
      </trkpt>
      <trkpt lat="49.3827" lon="2.28011">
        <ele>87</ele>
        <time>2012-07-23T09:47:04Z</time>
      </trkpt>
      <trkpt lat="49.38259" lon="2.27973">
        <ele>87</ele>
        <time>2012-07-23T09:47:10Z</time>
      </trkpt>
      <trkpt lat="49.38251" lon="2.27939">
        <ele>88</ele>
        <time>2012-07-23T09:47:15Z</time>
      </trkpt>
      <trkpt lat="49.38234" lon="2.27902">
        <ele>93</ele>
        <time>2012-07-23T09:47:22Z</time>
      </trkpt>
      <trkpt lat="49.38224" lon="2.27877">
        <ele>94</ele>
        <time>2012-07-23T09:47:28Z</time>
      </trkpt>
      <trkpt lat="49.38208" lon="2.27852">
        <ele>95</ele>
        <time>2012-07-23T09:47:34Z</time>
      </trkpt>
      <trkpt lat="49.38189" lon="2.2783">
        <ele>94</ele>
        <time>2012-07-23T09:47:40Z</time>
      </trkpt>
      <trkpt lat="49.38172" lon="2.27803">
        <ele>93</ele>
        <time>2012-07-23T09:47:45Z</time>
      </trkpt>
      <trkpt lat="49.38149" lon="2.27749">
        <ele>93</ele>
        <time>2012-07-23T09:47:52Z</time>
      </trkpt>
      <trkpt lat="49.38144" lon="2.27686">
        <ele>93</ele>
        <time>2012-07-23T09:47:58Z</time>
      </trkpt>
      <trkpt lat="49.38158" lon="2.27633">
        <ele>92</ele>
        <time>2012-07-23T09:48:05Z</time>
      </trkpt>
      <trkpt lat="49.38161" lon="2.27595">
        <ele>90</ele>
        <time>2012-07-23T09:48:09Z</time>
      </trkpt>
      <trkpt lat="49.38153" lon="2.27549">
        <ele>91</ele>
        <time>2012-07-23T09:48:15Z</time>
      </trkpt>
      <trkpt lat="49.38145" lon="2.27506">
        <ele>89</ele>
        <time>2012-07-23T09:48:21Z</time>
      </trkpt>
      <trkpt lat="49.3813" lon="2.27475">
        <ele>88</ele>
        <time>2012-07-23T09:48:26Z</time>
      </trkpt>
      <trkpt lat="49.38097" lon="2.27432">
        <ele>89</ele>
        <time>2012-07-23T09:48:34Z</time>
      </trkpt>
      <trkpt lat="49.38074" lon="2.27402">
        <ele>89</ele>
        <time>2012-07-23T09:48:40Z</time>
      </trkpt>
      <trkpt lat="49.38055" lon="2.27368">
        <ele>89</ele>
        <time>2012-07-23T09:48:45Z</time>
      </trkpt>
      <trkpt lat="49.38043" lon="2.27333">
        <ele>88</ele>
        <time>2012-07-23T09:48:50Z</time>
      </trkpt>
      <trkpt lat="49.38039" lon="2.27276">
        <ele>88</ele>
        <time>2012-07-23T09:48:57Z</time>
      </trkpt>
      <trkpt lat="49.38031" lon="2.27218">
        <ele>88</ele>
        <time>2012-07-23T09:49:04Z</time>
      </trkpt>
      <trkpt lat="49.38023" lon="2.27191">
        <ele>88</ele>
        <time>2012-07-23T09:49:10Z</time>
      </trkpt>
      <trkpt lat="49.38024" lon="2.27181">
        <ele>88</ele>
        <time>2012-07-23T09:49:16Z</time>
      </trkpt>
      <trkpt lat="49.38029" lon="2.27184">
        <ele>88</ele>
        <time>2012-07-23T09:50:47Z</time>
      </trkpt>
      <trkpt lat="49.38027" lon="2.27185">
        <ele>88</ele>
        <time>2012-07-23T09:52:18Z</time>
      </trkpt>
      <trkpt lat="49.3803" lon="2.27185">
        <ele>88</ele>
        <time>2012-07-23T09:53:48Z</time>
      </trkpt>
      <trkpt lat="49.38029" lon="2.27177">
        <ele>88</ele>
        <time>2012-07-23T09:54:35Z</time>
      </trkpt>
      <trkpt lat="49.3802" lon="2.27154">
        <ele>87</ele>
        <time>2012-07-23T09:54:42Z</time>
      </trkpt>
      <trkpt lat="49.38012" lon="2.27131">
        <ele>86</ele>
        <time>2012-07-23T09:54:46Z</time>
      </trkpt>
      <trkpt lat="49.37994" lon="2.27081">
        <ele>87</ele>
        <time>2012-07-23T09:54:54Z</time>
      </trkpt>
      <trkpt lat="49.37974" lon="2.27043">
        <ele>87</ele>
        <time>2012-07-23T09:55:00Z</time>
      </trkpt>
      <trkpt lat="49.37952" lon="2.27009">
        <ele>88</ele>
        <time>2012-07-23T09:55:06Z</time>
      </trkpt>
      <trkpt lat="49.37935" lon="2.26983">
        <ele>87</ele>
        <time>2012-07-23T09:55:11Z</time>
      </trkpt>
      <trkpt lat="49.37919" lon="2.26952">
        <ele>86</ele>
        <time>2012-07-23T09:55:17Z</time>
      </trkpt>
      <trkpt lat="49.37901" lon="2.26924">
        <ele>87</ele>
        <time>2012-07-23T09:55:24Z</time>
      </trkpt>
      <trkpt lat="49.37896" lon="2.26912">
        <ele>85</ele>
        <time>2012-07-23T09:55:28Z</time>
      </trkpt>
      <trkpt lat="49.3788" lon="2.26876">
        <ele>85</ele>
        <time>2012-07-23T09:55:36Z</time>
      </trkpt>
      <trkpt lat="49.37877" lon="2.26858">
        <ele>85</ele>
        <time>2012-07-23T09:55:42Z</time>
      </trkpt>
      <trkpt lat="49.37873" lon="2.26864">
        <ele>85</ele>
        <time>2012-07-23T09:57:44Z</time>
      </trkpt>
      <trkpt lat="49.37884" lon="2.26838">
        <ele>84</ele>
        <time>2012-07-23T09:58:04Z</time>
      </trkpt>
      <trkpt lat="49.37879" lon="2.26786">
        <ele>82</ele>
        <time>2012-07-23T09:58:11Z</time>
      </trkpt>
      <trkpt lat="49.37887" lon="2.2673">
        <ele>79</ele>
        <time>2012-07-23T09:58:17Z</time>
      </trkpt>
      <trkpt lat="49.37892" lon="2.26656">
        <ele>76</ele>
        <time>2012-07-23T09:58:23Z</time>
      </trkpt>
      <trkpt lat="49.37884" lon="2.26598">
        <ele>75</ele>
        <time>2012-07-23T09:58:29Z</time>
      </trkpt>
      <trkpt lat="49.37873" lon="2.26559">
        <ele>72</ele>
        <time>2012-07-23T09:58:33Z</time>
      </trkpt>
      <trkpt lat="49.37847" lon="2.26512">
        <ele>71</ele>
        <time>2012-07-23T09:58:40Z</time>
      </trkpt>
      <trkpt lat="49.37817" lon="2.26478">
        <ele>70</ele>
        <time>2012-07-23T09:58:47Z</time>
      </trkpt>
      <trkpt lat="49.37799" lon="2.26452">
        <ele>69</ele>
        <time>2012-07-23T09:58:52Z</time>
      </trkpt>
      <trkpt lat="49.37771" lon="2.26419">
        <ele>69</ele>
        <time>2012-07-23T09:58:59Z</time>
      </trkpt>
      <trkpt lat="49.37758" lon="2.26386">
        <ele>64</ele>
        <time>2012-07-23T09:59:04Z</time>
      </trkpt>
      <trkpt lat="49.3775" lon="2.26331">
        <ele>62</ele>
        <time>2012-07-23T09:59:11Z</time>
      </trkpt>
      <trkpt lat="49.37747" lon="2.26308">
        <ele>65</ele>
        <time>2012-07-23T09:59:17Z</time>
      </trkpt>
      <trkpt lat="49.37745" lon="2.26281">
        <ele>65</ele>
        <time>2012-07-23T09:59:35Z</time>
      </trkpt>
      <trkpt lat="49.3774" lon="2.26267">
        <ele>64</ele>
        <time>2012-07-23T09:59:42Z</time>
      </trkpt>
      <trkpt lat="49.37739" lon="2.26265">
        <ele>64</ele>
        <time>2012-07-23T10:01:12Z</time>
      </trkpt>
      <trkpt lat="49.37748" lon="2.26273">
        <ele>64</ele>
        <time>2012-07-23T10:02:06Z</time>
      </trkpt>
      <trkpt lat="49.37777" lon="2.26254">
        <ele>60</ele>
        <time>2012-07-23T10:02:12Z</time>
      </trkpt>
      <trkpt lat="49.37811" lon="2.26232">
        <ele>58</ele>
        <time>2012-07-23T10:02:18Z</time>
      </trkpt>
      <trkpt lat="49.37847" lon="2.26207">
        <ele>57</ele>
        <time>2012-07-23T10:02:24Z</time>
      </trkpt>
      <trkpt lat="49.37874" lon="2.26189">
        <ele>57</ele>
        <time>2012-07-23T10:02:29Z</time>
      </trkpt>
      <trkpt lat="49.37888" lon="2.26168">
        <ele>56</ele>
        <time>2012-07-23T10:02:36Z</time>
      </trkpt>
      <trkpt lat="49.37886" lon="2.26131">
        <ele>56</ele>
        <time>2012-07-23T10:02:41Z</time>
      </trkpt>
      <trkpt lat="49.3788" lon="2.26078">
        <ele>54</ele>
        <time>2012-07-23T10:02:47Z</time>
      </trkpt>
      <trkpt lat="49.37879" lon="2.26012">
        <ele>53</ele>
        <time>2012-07-23T10:02:54Z</time>
      </trkpt>
      <trkpt lat="49.37892" lon="2.25953">
        <ele>50</ele>
        <time>2012-07-23T10:03:00Z</time>
      </trkpt>
      <trkpt lat="49.37913" lon="2.25896">
        <ele>49</ele>
        <time>2012-07-23T10:03:06Z</time>
      </trkpt>
      <trkpt lat="49.37931" lon="2.2585">
        <ele>50</ele>
        <time>2012-07-23T10:03:11Z</time>
      </trkpt>
      <trkpt lat="49.37948" lon="2.25804">
        <ele>50</ele>
        <time>2012-07-23T10:03:16Z</time>
      </trkpt>
      <trkpt lat="49.37967" lon="2.2573">
        <ele>51</ele>
        <time>2012-07-23T10:03:24Z</time>
      </trkpt>
      <trkpt lat="49.3798" lon="2.25671">
        <ele>51</ele>
        <time>2012-07-23T10:03:30Z</time>
      </trkpt>
      <trkpt lat="49.37994" lon="2.25611">
        <ele>54</ele>
        <time>2012-07-23T10:03:36Z</time>
      </trkpt>
      <trkpt lat="49.38008" lon="2.25552">
        <ele>54</ele>
        <time>2012-07-23T10:03:42Z</time>
      </trkpt>
      <trkpt lat="49.38023" lon="2.25491">
        <ele>52</ele>
        <time>2012-07-23T10:03:48Z</time>
      </trkpt>
      <trkpt lat="49.38041" lon="2.25438">
        <ele>51</ele>
        <time>2012-07-23T10:03:54Z</time>
      </trkpt>
      <trkpt lat="49.3806" lon="2.25394">
        <ele>51</ele>
        <time>2012-07-23T10:04:00Z</time>
      </trkpt>
      <trkpt lat="49.38075" lon="2.25357">
        <ele>51</ele>
        <time>2012-07-23T10:04:06Z</time>
      </trkpt>
      <trkpt lat="49.38094" lon="2.2532">
        <ele>53</ele>
        <time>2012-07-23T10:04:12Z</time>
      </trkpt>
      <trkpt lat="49.38112" lon="2.25284">
        <ele>54</ele>
        <time>2012-07-23T10:04:18Z</time>
      </trkpt>
      <trkpt lat="49.38128" lon="2.25249">
        <ele>55</ele>
        <time>2012-07-23T10:04:24Z</time>
      </trkpt>
      <trkpt lat="49.38144" lon="2.25214">
        <ele>56</ele>
        <time>2012-07-23T10:04:30Z</time>
      </trkpt>
      <trkpt lat="49.38158" lon="2.25184">
        <ele>56</ele>
        <time>2012-07-23T10:04:35Z</time>
      </trkpt>
      <trkpt lat="49.38174" lon="2.25149">
        <ele>57</ele>
        <time>2012-07-23T10:04:41Z</time>
      </trkpt>
      <trkpt lat="49.38193" lon="2.25103">
        <ele>57</ele>
        <time>2012-07-23T10:04:49Z</time>
      </trkpt>
      <trkpt lat="49.38206" lon="2.25072">
        <ele>58</ele>
        <time>2012-07-23T10:04:55Z</time>
      </trkpt>
      <trkpt lat="49.38217" lon="2.25049">
        <ele>58</ele>
        <time>2012-07-23T10:05:01Z</time>
      </trkpt>
      <trkpt lat="49.38225" lon="2.25019">
        <ele>59</ele>
        <time>2012-07-23T10:05:06Z</time>
      </trkpt>
      <trkpt lat="49.3824" lon="2.24971">
        <ele>60</ele>
        <time>2012-07-23T10:05:13Z</time>
      </trkpt>
      <trkpt lat="49.38259" lon="2.24936">
        <ele>60</ele>
        <time>2012-07-23T10:05:18Z</time>
      </trkpt>
      <trkpt lat="49.38291" lon="2.24907">
        <ele>61</ele>
        <time>2012-07-23T10:05:25Z</time>
      </trkpt>
      <trkpt lat="49.38316" lon="2.24888">
        <ele>61</ele>
        <time>2012-07-23T10:05:31Z</time>
      </trkpt>
      <trkpt lat="49.38339" lon="2.24873">
        <ele>63</ele>
        <time>2012-07-23T10:05:37Z</time>
      </trkpt>
      <trkpt lat="49.38344" lon="2.24857">
        <ele>63</ele>
        <time>2012-07-23T10:05:41Z</time>
      </trkpt>
      <trkpt lat="49.38361" lon="2.24823">
        <ele>65</ele>
        <time>2012-07-23T10:05:49Z</time>
      </trkpt>
      <trkpt lat="49.38375" lon="2.24811">
        <ele>66</ele>
        <time>2012-07-23T10:05:53Z</time>
      </trkpt>
      <trkpt lat="49.38386" lon="2.24783">
        <ele>67</ele>
        <time>2012-07-23T10:06:01Z</time>
      </trkpt>
      <trkpt lat="49.38374" lon="2.2475">
        <ele>68</ele>
        <time>2012-07-23T10:06:07Z</time>
      </trkpt>
      <trkpt lat="49.38363" lon="2.24716">
        <ele>68</ele>
        <time>2012-07-23T10:06:13Z</time>
      </trkpt>
      <trkpt lat="49.38356" lon="2.24686">
        <ele>67</ele>
        <time>2012-07-23T10:06:18Z</time>
      </trkpt>
      <trkpt lat="49.38347" lon="2.24639">
        <ele>68</ele>
        <time>2012-07-23T10:06:25Z</time>
      </trkpt>
      <trkpt lat="49.38342" lon="2.24598">
        <ele>68</ele>
        <time>2012-07-23T10:06:31Z</time>
      </trkpt>
      <trkpt lat="49.38333" lon="2.24562">
        <ele>69</ele>
        <time>2012-07-23T10:06:37Z</time>
      </trkpt>
      <trkpt lat="49.38302" lon="2.2457">
        <ele>66</ele>
        <time>2012-07-23T10:06:43Z</time>
      </trkpt>
      <trkpt lat="49.38281" lon="2.24554">
        <ele>66</ele>
        <time>2012-07-23T10:06:48Z</time>
      </trkpt>
      <trkpt lat="49.38282" lon="2.24516">
        <ele>66</ele>
        <time>2012-07-23T10:06:53Z</time>
      </trkpt>
      <trkpt lat="49.38289" lon="2.24461">
        <ele>68</ele>
        <time>2012-07-23T10:07:01Z</time>
      </trkpt>
      <trkpt lat="49.38291" lon="2.24435">
        <ele>69</ele>
        <time>2012-07-23T10:07:05Z</time>
      </trkpt>
      <trkpt lat="49.38295" lon="2.2439">
        <ele>71</ele>
        <time>2012-07-23T10:07:12Z</time>
      </trkpt>
      <trkpt lat="49.38295" lon="2.24352">
        <ele>71</ele>
        <time>2012-07-23T10:07:19Z</time>
      </trkpt>
      <trkpt lat="49.38302" lon="2.24331">
        <ele>73</ele>
        <time>2012-07-23T10:07:25Z</time>
      </trkpt>
      <trkpt lat="49.38324" lon="2.24333">
        <ele>74</ele>
        <time>2012-07-23T10:07:31Z</time>
      </trkpt>
      <trkpt lat="49.38344" lon="2.2433">
        <ele>76</ele>
        <time>2012-07-23T10:07:37Z</time>
      </trkpt>
      <trkpt lat="49.38355" lon="2.24328">
        <ele>77</ele>
        <time>2012-07-23T10:07:41Z</time>
      </trkpt>
      <trkpt lat="49.38374" lon="2.24313">
        <ele>79</ele>
        <time>2012-07-23T10:07:55Z</time>
      </trkpt>
      <trkpt lat="49.38386" lon="2.24298">
        <ele>79</ele>
        <time>2012-07-23T10:08:01Z</time>
      </trkpt>
      <trkpt lat="49.38395" lon="2.2429">
        <ele>80</ele>
        <time>2012-07-23T10:08:07Z</time>
      </trkpt>
      <trkpt lat="49.38401" lon="2.24279">
        <ele>80</ele>
        <time>2012-07-23T10:08:13Z</time>
      </trkpt>
      <trkpt lat="49.38405" lon="2.24281">
        <ele>81</ele>
        <time>2012-07-23T10:09:05Z</time>
      </trkpt>
      <trkpt lat="49.38419" lon="2.24273">
        <ele>86</ele>
        <time>2012-07-23T10:09:11Z</time>
      </trkpt>
      <trkpt lat="49.38436" lon="2.24266">
        <ele>86</ele>
        <time>2012-07-23T10:09:19Z</time>
      </trkpt>
      <trkpt lat="49.38443" lon="2.24263">
        <ele>86</ele>
        <time>2012-07-23T10:09:25Z</time>
      </trkpt>
      <trkpt lat="49.38448" lon="2.24258">
        <ele>87</ele>
        <time>2012-07-23T10:09:30Z</time>
      </trkpt>
      <trkpt lat="49.38457" lon="2.2425">
        <ele>88</ele>
        <time>2012-07-23T10:09:37Z</time>
      </trkpt>
      <trkpt lat="49.38466" lon="2.24244">
        <ele>91</ele>
        <time>2012-07-23T10:09:43Z</time>
      </trkpt>
      <trkpt lat="49.38474" lon="2.24238">
        <ele>91</ele>
        <time>2012-07-23T10:09:49Z</time>
      </trkpt>
      <trkpt lat="49.3848" lon="2.24234">
        <ele>92</ele>
        <time>2012-07-23T10:09:55Z</time>
      </trkpt>
      <trkpt lat="49.38485" lon="2.24229">
        <ele>92</ele>
        <time>2012-07-23T10:10:01Z</time>
      </trkpt>
      <trkpt lat="49.38498" lon="2.24223">
        <ele>93</ele>
        <time>2012-07-23T10:10:16Z</time>
      </trkpt>
      <trkpt lat="49.38501" lon="2.24221">
        <ele>100</ele>
        <time>2012-07-23T10:10:20Z</time>
      </trkpt>
      <trkpt lat="49.38507" lon="2.24217">
        <ele>101</ele>
        <time>2012-07-23T10:10:26Z</time>
      </trkpt>
      <trkpt lat="49.38513" lon="2.2421">
        <ele>102</ele>
        <time>2012-07-23T10:10:35Z</time>
      </trkpt>
      <trkpt lat="49.38519" lon="2.24206">
        <ele>102</ele>
        <time>2012-07-23T10:10:41Z</time>
      </trkpt>
      <trkpt lat="49.38525" lon="2.24202">
        <ele>103</ele>
        <time>2012-07-23T10:10:47Z</time>
      </trkpt>
      <trkpt lat="49.38529" lon="2.24198">
        <ele>103</ele>
        <time>2012-07-23T10:10:53Z</time>
      </trkpt>
      <trkpt lat="49.38534" lon="2.24194">
        <ele>103</ele>
        <time>2012-07-23T10:10:59Z</time>
      </trkpt>
      <trkpt lat="49.3854" lon="2.24189">
        <ele>104</ele>
        <time>2012-07-23T10:11:05Z</time>
      </trkpt>
      <trkpt lat="49.38545" lon="2.24183">
        <ele>105</ele>
        <time>2012-07-23T10:11:11Z</time>
      </trkpt>
      <trkpt lat="49.3855" lon="2.24179">
        <ele>106</ele>
        <time>2012-07-23T10:11:17Z</time>
      </trkpt>
      <trkpt lat="49.38556" lon="2.24176">
        <ele>107</ele>
        <time>2012-07-23T10:11:23Z</time>
      </trkpt>
      <trkpt lat="49.38561" lon="2.24173">
        <ele>108</ele>
        <time>2012-07-23T10:11:29Z</time>
      </trkpt>
      <trkpt lat="49.38592" lon="2.2415">
        <ele>119</ele>
        <time>2012-07-23T10:12:17Z</time>
      </trkpt>
      <trkpt lat="49.38598" lon="2.24146">
        <ele>120</ele>
        <time>2012-07-23T10:12:23Z</time>
      </trkpt>
      <trkpt lat="49.38602" lon="2.24143">
        <ele>120</ele>
        <time>2012-07-23T10:12:29Z</time>
      </trkpt>
      <trkpt lat="49.38608" lon="2.2414">
        <ele>121</ele>
        <time>2012-07-23T10:12:35Z</time>
      </trkpt>
      <trkpt lat="49.38613" lon="2.24138">
        <ele>122</ele>
        <time>2012-07-23T10:12:41Z</time>
      </trkpt>
      <trkpt lat="49.38618" lon="2.24136">
        <ele>122</ele>
        <time>2012-07-23T10:12:47Z</time>
      </trkpt>
      <trkpt lat="49.38625" lon="2.24135">
        <ele>123</ele>
        <time>2012-07-23T10:12:53Z</time>
      </trkpt>
      <trkpt lat="49.38631" lon="2.24134">
        <ele>124</ele>
        <time>2012-07-23T10:12:59Z</time>
      </trkpt>
      <trkpt lat="49.38637" lon="2.24133">
        <ele>124</ele>
        <time>2012-07-23T10:13:05Z</time>
      </trkpt>
      <trkpt lat="49.38643" lon="2.24133">
        <ele>125</ele>
        <time>2012-07-23T10:13:11Z</time>
      </trkpt>
      <trkpt lat="49.38649" lon="2.24131">
        <ele>125</ele>
        <time>2012-07-23T10:13:17Z</time>
      </trkpt>
      <trkpt lat="49.38653" lon="2.24127">
        <ele>125</ele>
        <time>2012-07-23T10:13:23Z</time>
      </trkpt>
      <trkpt lat="49.38657" lon="2.24117">
        <ele>126</ele>
        <time>2012-07-23T10:13:29Z</time>
      </trkpt>
      <trkpt lat="49.38666" lon="2.24104">
        <ele>127</ele>
        <time>2012-07-23T10:13:44Z</time>
      </trkpt>
      <trkpt lat="49.38664" lon="2.24095">
        <ele>129</ele>
        <time>2012-07-23T10:13:56Z</time>
      </trkpt>
      <trkpt lat="49.3866" lon="2.24088">
        <ele>129</ele>
        <time>2012-07-23T10:14:02Z</time>
      </trkpt>
      <trkpt lat="49.38656" lon="2.24084">
        <ele>129</ele>
        <time>2012-07-23T10:14:50Z</time>
      </trkpt>
      <trkpt lat="49.38656" lon="2.24083">
        <ele>130</ele>
        <time>2012-07-23T10:17:04Z</time>
      </trkpt>
      <trkpt lat="49.38627" lon="2.24068">
        <ele>126</ele>
        <time>2012-07-23T10:18:34Z</time>
      </trkpt>
      <trkpt lat="49.38613" lon="2.24058">
        <ele>125</ele>
        <time>2012-07-23T10:18:40Z</time>
      </trkpt>
      <trkpt lat="49.386" lon="2.24033">
        <ele>125</ele>
        <time>2012-07-23T10:18:46Z</time>
      </trkpt>
      <trkpt lat="49.38599" lon="2.24012">
        <ele>125</ele>
        <time>2012-07-23T10:18:52Z</time>
      </trkpt>
      <trkpt lat="49.38599" lon="2.23993">
        <ele>126</ele>
        <time>2012-07-23T10:18:58Z</time>
      </trkpt>
      <trkpt lat="49.38591" lon="2.23974">
        <ele>127</ele>
        <time>2012-07-23T10:19:04Z</time>
      </trkpt>
      <trkpt lat="49.38581" lon="2.23951">
        <ele>120</ele>
        <time>2012-07-23T10:19:10Z</time>
      </trkpt>
      <trkpt lat="49.38577" lon="2.23923">
        <ele>123</ele>
        <time>2012-07-23T10:19:16Z</time>
      </trkpt>
      <trkpt lat="49.38577" lon="2.23897">
        <ele>123</ele>
        <time>2012-07-23T10:19:22Z</time>
      </trkpt>
      <trkpt lat="49.38577" lon="2.23877">
        <ele>122</ele>
        <time>2012-07-23T10:19:28Z</time>
      </trkpt>
      <trkpt lat="49.38573" lon="2.23854">
        <ele>123</ele>
        <time>2012-07-23T10:19:34Z</time>
      </trkpt>
      <trkpt lat="49.38568" lon="2.23835">
        <ele>124</ele>
        <time>2012-07-23T10:19:40Z</time>
      </trkpt>
      <trkpt lat="49.38565" lon="2.23816">
        <ele>123</ele>
        <time>2012-07-23T10:19:46Z</time>
      </trkpt>
      <trkpt lat="49.38564" lon="2.23793">
        <ele>122</ele>
        <time>2012-07-23T10:19:52Z</time>
      </trkpt>
      <trkpt lat="49.38568" lon="2.23766">
        <ele>123</ele>
        <time>2012-07-23T10:19:58Z</time>
      </trkpt>
      <trkpt lat="49.38569" lon="2.23742">
        <ele>124</ele>
        <time>2012-07-23T10:20:04Z</time>
      </trkpt>
      <trkpt lat="49.38568" lon="2.2371">
        <ele>122</ele>
        <time>2012-07-23T10:20:10Z</time>
      </trkpt>
      <trkpt lat="49.38566" lon="2.2368">
        <ele>123</ele>
        <time>2012-07-23T10:20:16Z</time>
      </trkpt>
      <trkpt lat="49.38565" lon="2.23685">
        <ele>123</ele>
        <time>2012-07-23T10:20:31Z</time>
      </trkpt>
      <trkpt lat="49.38568" lon="2.23705">
        <ele>122</ele>
        <time>2012-07-23T10:20:37Z</time>
      </trkpt>
      <trkpt lat="49.38564" lon="2.23701">
        <ele>122</ele>
        <time>2012-07-23T10:20:46Z</time>
      </trkpt>
      <trkpt lat="49.38546" lon="2.23679">
        <ele>120</ele>
        <time>2012-07-23T10:20:52Z</time>
      </trkpt>
      <trkpt lat="49.38543" lon="2.23665">
        <ele>120</ele>
        <time>2012-07-23T10:20:58Z</time>
      </trkpt>
      <trkpt lat="49.38561" lon="2.23694">
        <ele>122</ele>
        <time>2012-07-23T10:21:22Z</time>
      </trkpt>
      <trkpt lat="49.38566" lon="2.23708">
        <ele>122</ele>
        <time>2012-07-23T10:21:28Z</time>
      </trkpt>
      <trkpt lat="49.3857" lon="2.23723">
        <ele>123</ele>
        <time>2012-07-23T10:21:34Z</time>
      </trkpt>
      <trkpt lat="49.38568" lon="2.23745">
        <ele>124</ele>
        <time>2012-07-23T10:21:40Z</time>
      </trkpt>
      <trkpt lat="49.38568" lon="2.23763">
        <ele>123</ele>
        <time>2012-07-23T10:21:46Z</time>
      </trkpt>
      <trkpt lat="49.38569" lon="2.23774">
        <ele>123</ele>
        <time>2012-07-23T10:21:52Z</time>
      </trkpt>
      <trkpt lat="49.38566" lon="2.23797">
        <ele>122</ele>
        <time>2012-07-23T10:21:58Z</time>
      </trkpt>
      <trkpt lat="49.38566" lon="2.23821">
        <ele>123</ele>
        <time>2012-07-23T10:22:04Z</time>
      </trkpt>
      <trkpt lat="49.3857" lon="2.23845">
        <ele>124</ele>
        <time>2012-07-23T10:22:10Z</time>
      </trkpt>
      <trkpt lat="49.38576" lon="2.23868">
        <ele>122</ele>
        <time>2012-07-23T10:22:16Z</time>
      </trkpt>
      <trkpt lat="49.38581" lon="2.23896">
        <ele>123</ele>
        <time>2012-07-23T10:22:22Z</time>
      </trkpt>
      <trkpt lat="49.38573" lon="2.23908">
        <ele>123</ele>
        <time>2012-07-23T10:22:28Z</time>
      </trkpt>
      <trkpt lat="49.38559" lon="2.23911">
        <ele>122</ele>
        <time>2012-07-23T10:22:34Z</time>
      </trkpt>
      <trkpt lat="49.38543" lon="2.23907">
        <ele>120</ele>
        <time>2012-07-23T10:22:40Z</time>
      </trkpt>
      <trkpt lat="49.38531" lon="2.23895">
        <ele>118</ele>
        <time>2012-07-23T10:22:46Z</time>
      </trkpt>
      <trkpt lat="49.38515" lon="2.23893">
        <ele>117</ele>
        <time>2012-07-23T10:22:52Z</time>
      </trkpt>
      <trkpt lat="49.38489" lon="2.23892">
        <ele>107</ele>
        <time>2012-07-23T10:22:58Z</time>
      </trkpt>
      <trkpt lat="49.38464" lon="2.23884">
        <ele>105</ele>
        <time>2012-07-23T10:23:04Z</time>
      </trkpt>
      <trkpt lat="49.38443" lon="2.23881">
        <ele>103</ele>
        <time>2012-07-23T10:23:10Z</time>
      </trkpt>
      <trkpt lat="49.38431" lon="2.2389">
        <ele>101</ele>
        <time>2012-07-23T10:23:16Z</time>
      </trkpt>
      <trkpt lat="49.3841" lon="2.23928">
        <ele>93</ele>
        <time>2012-07-23T10:23:22Z</time>
      </trkpt>
      <trkpt lat="49.38394" lon="2.23978">
        <ele>90</ele>
        <time>2012-07-23T10:23:28Z</time>
      </trkpt>
      <trkpt lat="49.38376" lon="2.24023">
        <ele>87</ele>
        <time>2012-07-23T10:23:34Z</time>
      </trkpt>
      <trkpt lat="49.38365" lon="2.24057">
        <ele>85</ele>
        <time>2012-07-23T10:23:40Z</time>
      </trkpt>
      <trkpt lat="49.38371" lon="2.24086">
        <ele>83</ele>
        <time>2012-07-23T10:23:46Z</time>
      </trkpt>
      <trkpt lat="49.38376" lon="2.24117">
        <ele>83</ele>
        <time>2012-07-23T10:23:52Z</time>
      </trkpt>
      <trkpt lat="49.38381" lon="2.24148">
        <ele>83</ele>
        <time>2012-07-23T10:23:58Z</time>
      </trkpt>
      <trkpt lat="49.38385" lon="2.24186">
        <ele>81</ele>
        <time>2012-07-23T10:24:05Z</time>
      </trkpt>
      <trkpt lat="49.38384" lon="2.24209">
        <ele>81</ele>
        <time>2012-07-23T10:24:11Z</time>
      </trkpt>
      <trkpt lat="49.38384" lon="2.2422">
        <ele>81</ele>
        <time>2012-07-23T10:24:17Z</time>
      </trkpt>
      <trkpt lat="49.38393" lon="2.24253">
        <ele>81</ele>
        <time>2012-07-23T10:24:35Z</time>
      </trkpt>
      <trkpt lat="49.38402" lon="2.24281">
        <ele>80</ele>
        <time>2012-07-23T10:24:41Z</time>
      </trkpt>
      <trkpt lat="49.38379" lon="2.24314">
        <ele>79</ele>
        <time>2012-07-23T10:24:47Z</time>
      </trkpt>
      <trkpt lat="49.38343" lon="2.24333">
        <ele>76</ele>
        <time>2012-07-23T10:24:52Z</time>
      </trkpt>
      <trkpt lat="49.38301" lon="2.24335">
        <ele>72</ele>
        <time>2012-07-23T10:24:59Z</time>
      </trkpt>
      <trkpt lat="49.38293" lon="2.24369">
        <ele>71</ele>
        <time>2012-07-23T10:25:05Z</time>
      </trkpt>
      <trkpt lat="49.38293" lon="2.24417">
        <ele>69</ele>
        <time>2012-07-23T10:25:11Z</time>
      </trkpt>
      <trkpt lat="49.38286" lon="2.24475">
        <ele>68</ele>
        <time>2012-07-23T10:25:17Z</time>
      </trkpt>
      <trkpt lat="49.3828" lon="2.24536">
        <ele>66</ele>
        <time>2012-07-23T10:25:23Z</time>
      </trkpt>
      <trkpt lat="49.38287" lon="2.24596">
        <ele>65</ele>
        <time>2012-07-23T10:25:29Z</time>
      </trkpt>
      <trkpt lat="49.38288" lon="2.24655">
        <ele>65</ele>
        <time>2012-07-23T10:25:35Z</time>
      </trkpt>
      <trkpt lat="49.38295" lon="2.24714">
        <ele>64</ele>
        <time>2012-07-23T10:25:41Z</time>
      </trkpt>
      <trkpt lat="49.38307" lon="2.24769">
        <ele>63</ele>
        <time>2012-07-23T10:25:47Z</time>
      </trkpt>
      <trkpt lat="49.38326" lon="2.24824">
        <ele>62</ele>
        <time>2012-07-23T10:25:53Z</time>
      </trkpt>
      <trkpt lat="49.38338" lon="2.24868">
        <ele>63</ele>
        <time>2012-07-23T10:25:59Z</time>
      </trkpt>
      <trkpt lat="49.38305" lon="2.24892">
        <ele>61</ele>
        <time>2012-07-23T10:26:05Z</time>
      </trkpt>
      <trkpt lat="49.38272" lon="2.24918">
        <ele>60</ele>
        <time>2012-07-23T10:26:11Z</time>
      </trkpt>
      <trkpt lat="49.38244" lon="2.24953">
        <ele>60</ele>
        <time>2012-07-23T10:26:17Z</time>
      </trkpt>
      <trkpt lat="49.38228" lon="2.24999">
        <ele>59</ele>
        <time>2012-07-23T10:26:23Z</time>
      </trkpt>
      <trkpt lat="49.38217" lon="2.25034">
        <ele>59</ele>
        <time>2012-07-23T10:26:29Z</time>
      </trkpt>
      <trkpt lat="49.38203" lon="2.25074">
        <ele>58</ele>
        <time>2012-07-23T10:26:35Z</time>
      </trkpt>
      <trkpt lat="49.38184" lon="2.2512">
        <ele>57</ele>
        <time>2012-07-23T10:26:41Z</time>
      </trkpt>
      <trkpt lat="49.38162" lon="2.25167">
        <ele>57</ele>
        <time>2012-07-23T10:26:47Z</time>
      </trkpt>
      <trkpt lat="49.38143" lon="2.25212">
        <ele>56</ele>
        <time>2012-07-23T10:26:53Z</time>
      </trkpt>
      <trkpt lat="49.38121" lon="2.25258">
        <ele>54</ele>
        <time>2012-07-23T10:26:59Z</time>
      </trkpt>
      <trkpt lat="49.38099" lon="2.25308">
        <ele>53</ele>
        <time>2012-07-23T10:27:05Z</time>
      </trkpt>
      <trkpt lat="49.38073" lon="2.25361">
        <ele>51</ele>
        <time>2012-07-23T10:27:11Z</time>
      </trkpt>
      <trkpt lat="49.3805" lon="2.2541">
        <ele>51</ele>
        <time>2012-07-23T10:27:17Z</time>
      </trkpt>
      <trkpt lat="49.38028" lon="2.25464">
        <ele>51</ele>
        <time>2012-07-23T10:27:23Z</time>
      </trkpt>
      <trkpt lat="49.38012" lon="2.25519">
        <ele>53</ele>
        <time>2012-07-23T10:27:29Z</time>
      </trkpt>
      <trkpt lat="49.37999" lon="2.25575">
        <ele>55</ele>
        <time>2012-07-23T10:27:35Z</time>
      </trkpt>
      <trkpt lat="49.3799" lon="2.25614">
        <ele>54</ele>
        <time>2012-07-23T10:27:39Z</time>
      </trkpt>
      <trkpt lat="49.37975" lon="2.25687">
        <ele>51</ele>
        <time>2012-07-23T10:27:47Z</time>
      </trkpt>
      <trkpt lat="49.37967" lon="2.25723">
        <ele>51</ele>
        <time>2012-07-23T10:27:51Z</time>
      </trkpt>
      <trkpt lat="49.3795" lon="2.25791">
        <ele>51</ele>
        <time>2012-07-23T10:27:59Z</time>
      </trkpt>
      <trkpt lat="49.37935" lon="2.25833">
        <ele>50</ele>
        <time>2012-07-23T10:28:05Z</time>
      </trkpt>
      <trkpt lat="49.37924" lon="2.25862">
        <ele>50</ele>
        <time>2012-07-23T10:28:11Z</time>
      </trkpt>
      <trkpt lat="49.37912" lon="2.2588">
        <ele>49</ele>
        <time>2012-07-23T10:28:17Z</time>
      </trkpt>
      <trkpt lat="49.37889" lon="2.25872">
        <ele>49</ele>
        <time>2012-07-23T10:28:23Z</time>
      </trkpt>
      <trkpt lat="49.37874" lon="2.25866">
        <ele>49</ele>
        <time>2012-07-23T10:28:29Z</time>
      </trkpt>
      <trkpt lat="49.37856" lon="2.25857">
        <ele>49</ele>
        <time>2012-07-23T10:28:35Z</time>
      </trkpt>
      <trkpt lat="49.37835" lon="2.25848">
        <ele>48</ele>
        <time>2012-07-23T10:28:41Z</time>
      </trkpt>
      <trkpt lat="49.37816" lon="2.25839">
        <ele>49</ele>
        <time>2012-07-23T10:28:47Z</time>
      </trkpt>
      <trkpt lat="49.37796" lon="2.25829">
        <ele>51</ele>
        <time>2012-07-23T10:28:53Z</time>
      </trkpt>
      <trkpt lat="49.37779" lon="2.25818">
        <ele>51</ele>
        <time>2012-07-23T10:28:59Z</time>
      </trkpt>
      <trkpt lat="49.37768" lon="2.25813">
        <ele>52</ele>
        <time>2012-07-23T10:29:05Z</time>
      </trkpt>
      <trkpt lat="49.37761" lon="2.25826">
        <ele>52</ele>
        <time>2012-07-23T10:29:11Z</time>
      </trkpt>
      <trkpt lat="49.37757" lon="2.25853">
        <ele>52</ele>
        <time>2012-07-23T10:29:17Z</time>
      </trkpt>
      <trkpt lat="49.37753" lon="2.2588">
        <ele>52</ele>
        <time>2012-07-23T10:29:23Z</time>
      </trkpt>
      <trkpt lat="49.3775" lon="2.25899">
        <ele>55</ele>
        <time>2012-07-23T10:29:29Z</time>
      </trkpt>
      <trkpt lat="49.37746" lon="2.25909">
        <ele>54</ele>
        <time>2012-07-23T10:30:16Z</time>
      </trkpt>
      <trkpt lat="49.37716" lon="2.25879">
        <ele>57</ele>
        <time>2012-07-23T10:30:51Z</time>
      </trkpt>
      <trkpt lat="49.377" lon="2.25858">
        <ele>58</ele>
        <time>2012-07-23T10:30:57Z</time>
      </trkpt>
      <trkpt lat="49.37687" lon="2.25839">
        <ele>58</ele>
        <time>2012-07-23T10:31:03Z</time>
      </trkpt>
      <trkpt lat="49.37682" lon="2.2581">
        <ele>56</ele>
        <time>2012-07-23T10:31:21Z</time>
      </trkpt>
      <trkpt lat="49.37677" lon="2.25793">
        <ele>55</ele>
        <time>2012-07-23T10:31:27Z</time>
      </trkpt>
      <trkpt lat="49.37672" lon="2.25774">
        <ele>55</ele>
        <time>2012-07-23T10:31:33Z</time>
      </trkpt>
      <trkpt lat="49.37667" lon="2.25751">
        <ele>54</ele>
        <time>2012-07-23T10:31:39Z</time>
      </trkpt>
      <trkpt lat="49.37659" lon="2.25737">
        <ele>54</ele>
        <time>2012-07-23T10:31:44Z</time>
      </trkpt>
      <trkpt lat="49.37646" lon="2.25721">
        <ele>54</ele>
        <time>2012-07-23T10:31:51Z</time>
      </trkpt>
      <trkpt lat="49.37632" lon="2.25702">
        <ele>53</ele>
        <time>2012-07-23T10:31:57Z</time>
      </trkpt>
      <trkpt lat="49.37623" lon="2.25689">
        <ele>53</ele>
        <time>2012-07-23T10:32:03Z</time>
      </trkpt>
      <trkpt lat="49.37611" lon="2.25679">
        <ele>53</ele>
        <time>2012-07-23T10:32:09Z</time>
      </trkpt>
      <trkpt lat="49.37596" lon="2.25662">
        <ele>53</ele>
        <time>2012-07-23T10:32:15Z</time>
      </trkpt>
      <trkpt lat="49.37585" lon="2.2565">
        <ele>53</ele>
        <time>2012-07-23T10:32:20Z</time>
      </trkpt>
      <trkpt lat="49.37572" lon="2.25636">
        <ele>54</ele>
        <time>2012-07-23T10:32:27Z</time>
      </trkpt>
      <trkpt lat="49.37561" lon="2.2562">
        <ele>54</ele>
        <time>2012-07-23T10:32:33Z</time>
      </trkpt>
      <trkpt lat="49.3755" lon="2.256">
        <ele>54</ele>
        <time>2012-07-23T10:32:39Z</time>
      </trkpt>
      <trkpt lat="49.37543" lon="2.25581">
        <ele>53</ele>
        <time>2012-07-23T10:32:45Z</time>
      </trkpt>
      <trkpt lat="49.37533" lon="2.25562">
        <ele>53</ele>
        <time>2012-07-23T10:32:51Z</time>
      </trkpt>
      <trkpt lat="49.37524" lon="2.25542">
        <ele>53</ele>
        <time>2012-07-23T10:32:57Z</time>
      </trkpt>
      <trkpt lat="49.37513" lon="2.25524">
        <ele>53</ele>
        <time>2012-07-23T10:33:03Z</time>
      </trkpt>
      <trkpt lat="49.37505" lon="2.25509">
        <ele>54</ele>
        <time>2012-07-23T10:33:09Z</time>
      </trkpt>
      <trkpt lat="49.37492" lon="2.25485">
        <ele>54</ele>
        <time>2012-07-23T10:33:27Z</time>
      </trkpt>
      <trkpt lat="49.37483" lon="2.25468">
        <ele>54</ele>
        <time>2012-07-23T10:33:32Z</time>
      </trkpt>
      <trkpt lat="49.37472" lon="2.25452">
        <ele>54</ele>
        <time>2012-07-23T10:33:38Z</time>
      </trkpt>
      <trkpt lat="49.37459" lon="2.25441">
        <ele>54</ele>
        <time>2012-07-23T10:33:45Z</time>
      </trkpt>
      <trkpt lat="49.37437" lon="2.25411">
        <ele>53</ele>
        <time>2012-07-23T10:34:18Z</time>
      </trkpt>
      <trkpt lat="49.37421" lon="2.25388">
        <ele>52</ele>
        <time>2012-07-23T10:34:42Z</time>
      </trkpt>
      <trkpt lat="49.37393" lon="2.25372">
        <ele>53</ele>
        <time>2012-07-23T10:35:30Z</time>
      </trkpt>
      <trkpt lat="49.37372" lon="2.25363">
        <ele>53</ele>
        <time>2012-07-23T10:36:00Z</time>
      </trkpt>
      <trkpt lat="49.37359" lon="2.25353">
        <ele>53</ele>
        <time>2012-07-23T10:36:06Z</time>
      </trkpt>
      <trkpt lat="49.37347" lon="2.25336">
        <ele>53</ele>
        <time>2012-07-23T10:36:12Z</time>
      </trkpt>
      <trkpt lat="49.37338" lon="2.25319">
        <ele>52</ele>
        <time>2012-07-23T10:36:18Z</time>
      </trkpt>
      <trkpt lat="49.37323" lon="2.25303">
        <ele>54</ele>
        <time>2012-07-23T10:36:24Z</time>
      </trkpt>
      <trkpt lat="49.3731" lon="2.25291">
        <ele>54</ele>
        <time>2012-07-23T10:36:30Z</time>
      </trkpt>
      <trkpt lat="49.37301" lon="2.25282">
        <ele>54</ele>
        <time>2012-07-23T10:36:35Z</time>
      </trkpt>
      <trkpt lat="49.37291" lon="2.25269">
        <ele>54</ele>
        <time>2012-07-23T10:36:42Z</time>
      </trkpt>
      <trkpt lat="49.37281" lon="2.25239">
        <ele>53</ele>
        <time>2012-07-23T10:37:12Z</time>
      </trkpt>
      <trkpt lat="49.37278" lon="2.25229">
        <ele>53</ele>
        <time>2012-07-23T10:37:18Z</time>
      </trkpt>
      <trkpt lat="49.37277" lon="2.2522">
        <ele>53</ele>
        <time>2012-07-23T10:37:24Z</time>
      </trkpt>
      <trkpt lat="49.3726" lon="2.25174">
        <ele>53</ele>
        <time>2012-07-23T10:38:10Z</time>
      </trkpt>
      <trkpt lat="49.37257" lon="2.25164">
        <ele>53</ele>
        <time>2012-07-23T10:38:16Z</time>
      </trkpt>
      <trkpt lat="49.37252" lon="2.25158">
        <ele>53</ele>
        <time>2012-07-23T10:38:24Z</time>
      </trkpt>
      <trkpt lat="49.37249" lon="2.25153">
        <ele>55</ele>
        <time>2012-07-23T10:38:30Z</time>
      </trkpt>
      <trkpt lat="49.37234" lon="2.25123">
        <ele>55</ele>
        <time>2012-07-23T10:39:01Z</time>
      </trkpt>
      <trkpt lat="49.37228" lon="2.25111">
        <ele>55</ele>
        <time>2012-07-23T10:39:07Z</time>
      </trkpt>
      <trkpt lat="49.37223" lon="2.25103">
        <ele>55</ele>
        <time>2012-07-23T10:39:12Z</time>
      </trkpt>
      <trkpt lat="49.3722" lon="2.25091">
        <ele>55</ele>
        <time>2012-07-23T10:39:19Z</time>
      </trkpt>
      <trkpt lat="49.37216" lon="2.2508">
        <ele>54</ele>
        <time>2012-07-23T10:39:25Z</time>
      </trkpt>
      <trkpt lat="49.37213" lon="2.25071">
        <ele>54</ele>
        <time>2012-07-23T10:39:30Z</time>
      </trkpt>
      <trkpt lat="49.37209" lon="2.25062">
        <ele>54</ele>
        <time>2012-07-23T10:39:36Z</time>
      </trkpt>
      <trkpt lat="49.37204" lon="2.25051">
        <ele>54</ele>
        <time>2012-07-23T10:39:42Z</time>
      </trkpt>
      <trkpt lat="49.37201" lon="2.25043">
        <ele>54</ele>
        <time>2012-07-23T10:39:47Z</time>
      </trkpt>
      <trkpt lat="49.37195" lon="2.25036">
        <ele>55</ele>
        <time>2012-07-23T10:39:54Z</time>
      </trkpt>
      <trkpt lat="49.3719" lon="2.25025">
        <ele>55</ele>
        <time>2012-07-23T10:40:01Z</time>
      </trkpt>
      <trkpt lat="49.37181" lon="2.25018">
        <ele>55</ele>
        <time>2012-07-23T10:40:16Z</time>
      </trkpt>
      <trkpt lat="49.37177" lon="2.25006">
        <ele>55</ele>
        <time>2012-07-23T10:40:22Z</time>
      </trkpt>
      <trkpt lat="49.37172" lon="2.25003">
        <ele>55</ele>
        <time>2012-07-23T10:40:28Z</time>
      </trkpt>
      <trkpt lat="49.37171" lon="2.24996">
        <ele>54</ele>
        <time>2012-07-23T10:40:33Z</time>
      </trkpt>
      <trkpt lat="49.37163" lon="2.24967">
        <ele>56</ele>
        <time>2012-07-23T10:40:58Z</time>
      </trkpt>
      <trkpt lat="49.37158" lon="2.2496">
        <ele>56</ele>
        <time>2012-07-23T10:41:04Z</time>
      </trkpt>
      <trkpt lat="49.37154" lon="2.24957">
        <ele>56</ele>
        <time>2012-07-23T10:41:09Z</time>
      </trkpt>
      <trkpt lat="49.37144" lon="2.24944">
        <ele>56</ele>
        <time>2012-07-23T10:41:23Z</time>
      </trkpt>
      <trkpt lat="49.3714" lon="2.24931">
        <ele>56</ele>
        <time>2012-07-23T10:41:31Z</time>
      </trkpt>
      <trkpt lat="49.37136" lon="2.24926">
        <ele>56</ele>
        <time>2012-07-23T10:41:36Z</time>
      </trkpt>
      <trkpt lat="49.37126" lon="2.24924">
        <ele>57</ele>
        <time>2012-07-23T10:41:46Z</time>
      </trkpt>
      <trkpt lat="49.37119" lon="2.24919">
        <ele>58</ele>
        <time>2012-07-23T10:41:52Z</time>
      </trkpt>
      <trkpt lat="49.37113" lon="2.24914">
        <ele>56</ele>
        <time>2012-07-23T10:41:58Z</time>
      </trkpt>
      <trkpt lat="49.3711" lon="2.24905">
        <ele>56</ele>
        <time>2012-07-23T10:42:04Z</time>
      </trkpt>
      <trkpt lat="49.37106" lon="2.24901">
        <ele>56</ele>
        <time>2012-07-23T10:42:10Z</time>
      </trkpt>
      <trkpt lat="49.37102" lon="2.2489">
        <ele>56</ele>
        <time>2012-07-23T10:42:15Z</time>
      </trkpt>
      <trkpt lat="49.37101" lon="2.24876">
        <ele>55</ele>
        <time>2012-07-23T10:42:22Z</time>
      </trkpt>
      <trkpt lat="49.37099" lon="2.24869">
        <ele>55</ele>
        <time>2012-07-23T10:42:28Z</time>
      </trkpt>
      <trkpt lat="49.37102" lon="2.24863">
        <ele>55</ele>
        <time>2012-07-23T10:42:34Z</time>
      </trkpt>
      <trkpt lat="49.37111" lon="2.24851">
        <ele>54</ele>
        <time>2012-07-23T10:42:49Z</time>
      </trkpt>
      <trkpt lat="49.37114" lon="2.24842">
        <ele>54</ele>
        <time>2012-07-23T10:42:55Z</time>
      </trkpt>
      <trkpt lat="49.37113" lon="2.24827">
        <ele>52</ele>
        <time>2012-07-23T10:43:07Z</time>
      </trkpt>
      <trkpt lat="49.37115" lon="2.24819">
        <ele>52</ele>
        <time>2012-07-23T10:43:13Z</time>
      </trkpt>
      <trkpt lat="49.37113" lon="2.24781">
        <ele>51</ele>
        <time>2012-07-23T10:44:42Z</time>
      </trkpt>
      <trkpt lat="49.371" lon="2.24757">
        <ele>52</ele>
        <time>2012-07-23T10:45:30Z</time>
      </trkpt>
      <trkpt lat="49.37086" lon="2.24739">
        <ele>51</ele>
        <time>2012-07-23T10:47:02Z</time>
      </trkpt>
      <trkpt lat="49.3708" lon="2.24733">
        <ele>52</ele>
        <time>2012-07-23T10:47:08Z</time>
      </trkpt>
      <trkpt lat="49.3707" lon="2.24725">
        <ele>52</ele>
        <time>2012-07-23T10:47:20Z</time>
      </trkpt>
      <trkpt lat="49.37065" lon="2.2472">
        <ele>52</ele>
        <time>2012-07-23T10:47:26Z</time>
      </trkpt>
      <trkpt lat="49.37051" lon="2.24715">
        <ele>52</ele>
        <time>2012-07-23T10:48:13Z</time>
      </trkpt>
      <trkpt lat="49.3702" lon="2.24686">
        <ele>52</ele>
        <time>2012-07-23T10:49:43Z</time>
      </trkpt>
      <trkpt lat="49.37006" lon="2.24672">
        <ele>51</ele>
        <time>2012-07-23T10:51:14Z</time>
      </trkpt>
      <trkpt lat="49.37013" lon="2.24676">
        <ele>52</ele>
        <time>2012-07-23T10:52:45Z</time>
      </trkpt>
      <trkpt lat="49.37006" lon="2.24688">
        <ele>52</ele>
        <time>2012-07-23T10:53:39Z</time>
      </trkpt>
      <trkpt lat="49.37002" lon="2.24692">
        <ele>52</ele>
        <time>2012-07-23T10:53:45Z</time>
      </trkpt>
      <trkpt lat="49.36997" lon="2.2472">
        <ele>53</ele>
        <time>2012-07-23T10:55:15Z</time>
      </trkpt>
      <trkpt lat="49.36979" lon="2.24733">
        <ele>53</ele>
        <time>2012-07-23T10:56:21Z</time>
      </trkpt>
      <trkpt lat="49.36979" lon="2.24733">
        <ele>53</ele>
        <time>2012-07-23T10:57:52Z</time>
      </trkpt>
      <trkpt lat="49.36966" lon="2.24733">
        <ele>52</ele>
        <time>2012-07-23T10:59:24Z</time>
      </trkpt>
      <trkpt lat="49.36951" lon="2.24682">
        <ele>51</ele>
        <time>2012-07-23T11:00:55Z</time>
      </trkpt>
      <trkpt lat="49.36943" lon="2.24649">
        <ele>50</ele>
        <time>2012-07-23T11:01:41Z</time>
      </trkpt>
      <trkpt lat="49.36926" lon="2.24637">
        <ele>50</ele>
        <time>2012-07-23T11:03:13Z</time>
      </trkpt>
      <trkpt lat="49.36902" lon="2.24616">
        <ele>49</ele>
        <time>2012-07-23T11:04:01Z</time>
      </trkpt>
      <trkpt lat="49.36894" lon="2.24616">
        <ele>49</ele>
        <time>2012-07-23T11:04:07Z</time>
      </trkpt>
      <trkpt lat="49.36887" lon="2.24615">
        <ele>49</ele>
        <time>2012-07-23T11:04:13Z</time>
      </trkpt>
      <trkpt lat="49.36882" lon="2.24616">
        <ele>49</ele>
        <time>2012-07-23T11:04:19Z</time>
      </trkpt>
      <trkpt lat="49.36877" lon="2.24612">
        <ele>49</ele>
        <time>2012-07-23T11:04:25Z</time>
      </trkpt>
      <trkpt lat="49.36872" lon="2.24608">
        <ele>49</ele>
        <time>2012-07-23T11:04:31Z</time>
      </trkpt>
      <trkpt lat="49.36861" lon="2.24602">
        <ele>49</ele>
        <time>2012-07-23T11:05:19Z</time>
      </trkpt>
      <trkpt lat="49.36851" lon="2.24608">
        <ele>49</ele>
        <time>2012-07-23T11:06:07Z</time>
      </trkpt>
      <trkpt lat="49.36851" lon="2.24609">
        <ele>49</ele>
        <time>2012-07-23T11:07:50Z</time>
      </trkpt>
      <trkpt lat="49.36827" lon="2.24612">
        <ele>49</ele>
        <time>2012-07-23T11:09:02Z</time>
      </trkpt>
      <trkpt lat="49.36817" lon="2.24616">
        <ele>49</ele>
        <time>2012-07-23T11:09:08Z</time>
      </trkpt>
      <trkpt lat="49.36805" lon="2.24624">
        <ele>50</ele>
        <time>2012-07-23T11:09:14Z</time>
      </trkpt>
      <trkpt lat="49.36792" lon="2.24629">
        <ele>50</ele>
        <time>2012-07-23T11:09:20Z</time>
      </trkpt>
      <trkpt lat="49.36774" lon="2.2464">
        <ele>50</ele>
        <time>2012-07-23T11:09:26Z</time>
      </trkpt>
      <trkpt lat="49.36757" lon="2.2465">
        <ele>50</ele>
        <time>2012-07-23T11:09:32Z</time>
      </trkpt>
      <trkpt lat="49.36741" lon="2.24658">
        <ele>51</ele>
        <time>2012-07-23T11:09:38Z</time>
      </trkpt>
      <trkpt lat="49.36727" lon="2.24665">
        <ele>52</ele>
        <time>2012-07-23T11:09:44Z</time>
      </trkpt>
      <trkpt lat="49.36721" lon="2.24677">
        <ele>53</ele>
        <time>2012-07-23T11:09:50Z</time>
      </trkpt>
      <trkpt lat="49.36724" lon="2.247">
        <ele>53</ele>
        <time>2012-07-23T11:09:56Z</time>
      </trkpt>
      <trkpt lat="49.36727" lon="2.24727">
        <ele>54</ele>
        <time>2012-07-23T11:10:02Z</time>
      </trkpt>
      <trkpt lat="49.36729" lon="2.24759">
        <ele>55</ele>
        <time>2012-07-23T11:10:08Z</time>
      </trkpt>
      <trkpt lat="49.3673" lon="2.24791">
        <ele>56</ele>
        <time>2012-07-23T11:10:14Z</time>
      </trkpt>
      <trkpt lat="49.36735" lon="2.24822">
        <ele>56</ele>
        <time>2012-07-23T11:10:20Z</time>
      </trkpt>
      <trkpt lat="49.36741" lon="2.24853">
        <ele>58</ele>
        <time>2012-07-23T11:10:26Z</time>
      </trkpt>
      <trkpt lat="49.36748" lon="2.24882">
        <ele>59</ele>
        <time>2012-07-23T11:10:31Z</time>
      </trkpt>
      <trkpt lat="49.36757" lon="2.24919">
        <ele>58</ele>
        <time>2012-07-23T11:10:38Z</time>
      </trkpt>
      <trkpt lat="49.36766" lon="2.24948">
        <ele>58</ele>
        <time>2012-07-23T11:10:44Z</time>
      </trkpt>
      <trkpt lat="49.36776" lon="2.24977">
        <ele>58</ele>
        <time>2012-07-23T11:10:50Z</time>
      </trkpt>
      <trkpt lat="49.36786" lon="2.25007">
        <ele>60</ele>
        <time>2012-07-23T11:10:56Z</time>
      </trkpt>
      <trkpt lat="49.36798" lon="2.25041">
        <ele>60</ele>
        <time>2012-07-23T11:11:02Z</time>
      </trkpt>
      <trkpt lat="49.36809" lon="2.25079">
        <ele>60</ele>
        <time>2012-07-23T11:11:08Z</time>
      </trkpt>
      <trkpt lat="49.36821" lon="2.25117">
        <ele>62</ele>
        <time>2012-07-23T11:11:14Z</time>
      </trkpt>
      <trkpt lat="49.36834" lon="2.25156">
        <ele>62</ele>
        <time>2012-07-23T11:11:20Z</time>
      </trkpt>
      <trkpt lat="49.36846" lon="2.25193">
        <ele>64</ele>
        <time>2012-07-23T11:11:26Z</time>
      </trkpt>
      <trkpt lat="49.3686" lon="2.25232">
        <ele>66</ele>
        <time>2012-07-23T11:11:32Z</time>
      </trkpt>
      <trkpt lat="49.3687" lon="2.25271">
        <ele>68</ele>
        <time>2012-07-23T11:11:38Z</time>
      </trkpt>
      <trkpt lat="49.36877" lon="2.25311">
        <ele>69</ele>
        <time>2012-07-23T11:11:44Z</time>
      </trkpt>
      <trkpt lat="49.3688" lon="2.25346">
        <ele>70</ele>
        <time>2012-07-23T11:11:50Z</time>
      </trkpt>
      <trkpt lat="49.36885" lon="2.25376">
        <ele>70</ele>
        <time>2012-07-23T11:11:56Z</time>
      </trkpt>
      <trkpt lat="49.36895" lon="2.25407">
        <ele>70</ele>
        <time>2012-07-23T11:12:02Z</time>
      </trkpt>
      <trkpt lat="49.36912" lon="2.25439">
        <ele>70</ele>
        <time>2012-07-23T11:12:08Z</time>
      </trkpt>
      <trkpt lat="49.36928" lon="2.25475">
        <ele>69</ele>
        <time>2012-07-23T11:12:14Z</time>
      </trkpt>
      <trkpt lat="49.36945" lon="2.25511">
        <ele>69</ele>
        <time>2012-07-23T11:12:20Z</time>
      </trkpt>
      <trkpt lat="49.36956" lon="2.25541">
        <ele>70</ele>
        <time>2012-07-23T11:12:25Z</time>
      </trkpt>
      <trkpt lat="49.36966" lon="2.25589">
        <ele>73</ele>
        <time>2012-07-23T11:12:32Z</time>
      </trkpt>
      <trkpt lat="49.36974" lon="2.25622">
        <ele>74</ele>
        <time>2012-07-23T11:12:38Z</time>
      </trkpt>
      <trkpt lat="49.36978" lon="2.25661">
        <ele>74</ele>
        <time>2012-07-23T11:12:44Z</time>
      </trkpt>
      <trkpt lat="49.36986" lon="2.25706">
        <ele>77</ele>
        <time>2012-07-23T11:12:50Z</time>
      </trkpt>
      <trkpt lat="49.36993" lon="2.25746">
        <ele>77</ele>
        <time>2012-07-23T11:12:56Z</time>
      </trkpt>
      <trkpt lat="49.36994" lon="2.25775">
        <ele>77</ele>
        <time>2012-07-23T11:13:01Z</time>
      </trkpt>
      <trkpt lat="49.36996" lon="2.25794">
        <ele>78</ele>
        <time>2012-07-23T11:13:07Z</time>
      </trkpt>
      <trkpt lat="49.37007" lon="2.25817">
        <ele>75</ele>
        <time>2012-07-23T11:13:14Z</time>
      </trkpt>
      <trkpt lat="49.37021" lon="2.25842">
        <ele>76</ele>
        <time>2012-07-23T11:13:18Z</time>
      </trkpt>
      <trkpt lat="49.37036" lon="2.25892">
        <ele>76</ele>
        <time>2012-07-23T11:13:26Z</time>
      </trkpt>
      <trkpt lat="49.37037" lon="2.25922">
        <ele>77</ele>
        <time>2012-07-23T11:13:31Z</time>
      </trkpt>
      <trkpt lat="49.37037" lon="2.25961">
        <ele>77</ele>
        <time>2012-07-23T11:13:38Z</time>
      </trkpt>
      <trkpt lat="49.37037" lon="2.25994">
        <ele>77</ele>
        <time>2012-07-23T11:13:44Z</time>
      </trkpt>
      <trkpt lat="49.37038" lon="2.26023">
        <ele>77</ele>
        <time>2012-07-23T11:13:50Z</time>
      </trkpt>
      <trkpt lat="49.37036" lon="2.26049">
        <ele>77</ele>
        <time>2012-07-23T11:13:56Z</time>
      </trkpt>
      <trkpt lat="49.37036" lon="2.26076">
        <ele>77</ele>
        <time>2012-07-23T11:14:02Z</time>
      </trkpt>
      <trkpt lat="49.37039" lon="2.26101">
        <ele>79</ele>
        <time>2012-07-23T11:14:08Z</time>
      </trkpt>
      <trkpt lat="49.37043" lon="2.26125">
        <ele>79</ele>
        <time>2012-07-23T11:14:14Z</time>
      </trkpt>
      <trkpt lat="49.37043" lon="2.26153">
        <ele>80</ele>
        <time>2012-07-23T11:14:20Z</time>
      </trkpt>
      <trkpt lat="49.37042" lon="2.26181">
        <ele>85</ele>
        <time>2012-07-23T11:14:26Z</time>
      </trkpt>
      <trkpt lat="49.37039" lon="2.2621">
        <ele>86</ele>
        <time>2012-07-23T11:14:32Z</time>
      </trkpt>
      <trkpt lat="49.37035" lon="2.26239">
        <ele>87</ele>
        <time>2012-07-23T11:14:38Z</time>
      </trkpt>
      <trkpt lat="49.37029" lon="2.2626">
        <ele>93</ele>
        <time>2012-07-23T11:14:44Z</time>
      </trkpt>
      <trkpt lat="49.37025" lon="2.26281">
        <ele>94</ele>
        <time>2012-07-23T11:14:50Z</time>
      </trkpt>
      <trkpt lat="49.37026" lon="2.26297">
        <ele>96</ele>
        <time>2012-07-23T11:14:56Z</time>
      </trkpt>
      <trkpt lat="49.37031" lon="2.26314">
        <ele>96</ele>
        <time>2012-07-23T11:15:02Z</time>
      </trkpt>
      <trkpt lat="49.37034" lon="2.26327">
        <ele>97</ele>
        <time>2012-07-23T11:15:07Z</time>
      </trkpt>
      <trkpt lat="49.37037" lon="2.2635">
        <ele>103</ele>
        <time>2012-07-23T11:15:15Z</time>
      </trkpt>
      <trkpt lat="49.3704" lon="2.26364">
        <ele>103</ele>
        <time>2012-07-23T11:15:21Z</time>
      </trkpt>
      <trkpt lat="49.37041" lon="2.26379">
        <ele>104</ele>
        <time>2012-07-23T11:15:26Z</time>
      </trkpt>
      <trkpt lat="49.37043" lon="2.26396">
        <ele>105</ele>
        <time>2012-07-23T11:15:32Z</time>
      </trkpt>
      <trkpt lat="49.37045" lon="2.2641">
        <ele>105</ele>
        <time>2012-07-23T11:15:39Z</time>
      </trkpt>
      <trkpt lat="49.37051" lon="2.26432">
        <ele>110</ele>
        <time>2012-07-23T11:15:45Z</time>
      </trkpt>
      <trkpt lat="49.37053" lon="2.26451">
        <ele>110</ele>
        <time>2012-07-23T11:15:51Z</time>
      </trkpt>
      <trkpt lat="49.37053" lon="2.26467">
        <ele>111</ele>
        <time>2012-07-23T11:15:55Z</time>
      </trkpt>
      <trkpt lat="49.37054" lon="2.26492">
        <ele>112</ele>
        <time>2012-07-23T11:16:03Z</time>
      </trkpt>
      <trkpt lat="49.37055" lon="2.26508">
        <ele>115</ele>
        <time>2012-07-23T11:16:09Z</time>
      </trkpt>
      <trkpt lat="49.37057" lon="2.26519">
        <ele>115</ele>
        <time>2012-07-23T11:16:13Z</time>
      </trkpt>
      <trkpt lat="49.37056" lon="2.26535">
        <ele>115</ele>
        <time>2012-07-23T11:16:21Z</time>
      </trkpt>
      <trkpt lat="49.37058" lon="2.26545">
        <ele>115</ele>
        <time>2012-07-23T11:16:26Z</time>
      </trkpt>
      <trkpt lat="49.37059" lon="2.26562">
        <ele>116</ele>
        <time>2012-07-23T11:16:32Z</time>
      </trkpt>
      <trkpt lat="49.37059" lon="2.26574">
        <ele>116</ele>
        <time>2012-07-23T11:16:39Z</time>
      </trkpt>
      <trkpt lat="49.3706" lon="2.26585">
        <ele>118</ele>
        <time>2012-07-23T11:16:45Z</time>
      </trkpt>
      <trkpt lat="49.37059" lon="2.26595">
        <ele>118</ele>
        <time>2012-07-23T11:16:51Z</time>
      </trkpt>
      <trkpt lat="49.3706" lon="2.26604">
        <ele>118</ele>
        <time>2012-07-23T11:16:57Z</time>
      </trkpt>
      <trkpt lat="49.37061" lon="2.26615">
        <ele>118</ele>
        <time>2012-07-23T11:17:02Z</time>
      </trkpt>
      <trkpt lat="49.37062" lon="2.26625">
        <ele>119</ele>
        <time>2012-07-23T11:17:09Z</time>
      </trkpt>
      <trkpt lat="49.37064" lon="2.26638">
        <ele>119</ele>
        <time>2012-07-23T11:17:15Z</time>
      </trkpt>
      <trkpt lat="49.37065" lon="2.26647">
        <ele>119</ele>
        <time>2012-07-23T11:17:21Z</time>
      </trkpt>
      <trkpt lat="49.37063" lon="2.26659">
        <ele>119</ele>
        <time>2012-07-23T11:17:27Z</time>
      </trkpt>
      <trkpt lat="49.37066" lon="2.26677">
        <ele>120</ele>
        <time>2012-07-23T11:17:33Z</time>
      </trkpt>
      <trkpt lat="49.37066" lon="2.26693">
        <ele>120</ele>
        <time>2012-07-23T11:17:39Z</time>
      </trkpt>
      <trkpt lat="49.37069" lon="2.26704">
        <ele>120</ele>
        <time>2012-07-23T11:17:45Z</time>
      </trkpt>
      <trkpt lat="49.3707" lon="2.26721">
        <ele>120</ele>
        <time>2012-07-23T11:17:51Z</time>
      </trkpt>
      <trkpt lat="49.3707" lon="2.26738">
        <ele>120</ele>
        <time>2012-07-23T11:17:57Z</time>
      </trkpt>
      <trkpt lat="49.37069" lon="2.26752">
        <ele>120</ele>
        <time>2012-07-23T11:18:03Z</time>
      </trkpt>
      <trkpt lat="49.37069" lon="2.26762">
        <ele>121</ele>
        <time>2012-07-23T11:18:08Z</time>
      </trkpt>
      <trkpt lat="49.37071" lon="2.26778">
        <ele>121</ele>
        <time>2012-07-23T11:18:15Z</time>
      </trkpt>
      <trkpt lat="49.37072" lon="2.26791">
        <ele>122</ele>
        <time>2012-07-23T11:18:21Z</time>
      </trkpt>
      <trkpt lat="49.37073" lon="2.26806">
        <ele>122</ele>
        <time>2012-07-23T11:18:27Z</time>
      </trkpt>
      <trkpt lat="49.37078" lon="2.26818">
        <ele>122</ele>
        <time>2012-07-23T11:18:33Z</time>
      </trkpt>
      <trkpt lat="49.37073" lon="2.26826">
        <ele>122</ele>
        <time>2012-07-23T11:19:20Z</time>
      </trkpt>
      <trkpt lat="49.37078" lon="2.26846">
        <ele>124</ele>
        <time>2012-07-23T11:20:19Z</time>
      </trkpt>
      <trkpt lat="49.37077" lon="2.26854">
        <ele>125</ele>
        <time>2012-07-23T11:20:24Z</time>
      </trkpt>
      <trkpt lat="49.37072" lon="2.26867">
        <ele>126</ele>
        <time>2012-07-23T11:20:32Z</time>
      </trkpt>
      <trkpt lat="49.37068" lon="2.26878">
        <ele>126</ele>
        <time>2012-07-23T11:20:37Z</time>
      </trkpt>
      <trkpt lat="49.37066" lon="2.2689">
        <ele>127</ele>
        <time>2012-07-23T11:20:43Z</time>
      </trkpt>
      <trkpt lat="49.37065" lon="2.26897">
        <ele>127</ele>
        <time>2012-07-23T11:20:47Z</time>
      </trkpt>
      <trkpt lat="49.37062" lon="2.26912">
        <ele>127</ele>
        <time>2012-07-23T11:20:54Z</time>
      </trkpt>
      <trkpt lat="49.3706" lon="2.26923">
        <ele>129</ele>
        <time>2012-07-23T11:21:02Z</time>
      </trkpt>
      <trkpt lat="49.37058" lon="2.26935">
        <ele>130</ele>
        <time>2012-07-23T11:21:08Z</time>
      </trkpt>
      <trkpt lat="49.37053" lon="2.26948">
        <ele>130</ele>
        <time>2012-07-23T11:21:13Z</time>
      </trkpt>
      <trkpt lat="49.37051" lon="2.26958">
        <ele>131</ele>
        <time>2012-07-23T11:21:19Z</time>
      </trkpt>
      <trkpt lat="49.3705" lon="2.26971">
        <ele>131</ele>
        <time>2012-07-23T11:21:25Z</time>
      </trkpt>
      <trkpt lat="49.37045" lon="2.26988">
        <ele>131</ele>
        <time>2012-07-23T11:21:31Z</time>
      </trkpt>
      <trkpt lat="49.3704" lon="2.27006">
        <ele>132</ele>
        <time>2012-07-23T11:21:38Z</time>
      </trkpt>
      <trkpt lat="49.37036" lon="2.27019">
        <ele>132</ele>
        <time>2012-07-23T11:21:48Z</time>
      </trkpt>
      <trkpt lat="49.37033" lon="2.27035">
        <ele>132</ele>
        <time>2012-07-23T11:21:53Z</time>
      </trkpt>
      <trkpt lat="49.37033" lon="2.27054">
        <ele>132</ele>
        <time>2012-07-23T11:21:59Z</time>
      </trkpt>
      <trkpt lat="49.37032" lon="2.2707">
        <ele>132</ele>
        <time>2012-07-23T11:22:06Z</time>
      </trkpt>
      <trkpt lat="49.37031" lon="2.27079">
        <ele>132</ele>
        <time>2012-07-23T11:22:10Z</time>
      </trkpt>
      <trkpt lat="49.37032" lon="2.27091">
        <ele>131</ele>
        <time>2012-07-23T11:22:20Z</time>
      </trkpt>
      <trkpt lat="49.37033" lon="2.27104">
        <ele>131</ele>
        <time>2012-07-23T11:22:27Z</time>
      </trkpt>
      <trkpt lat="49.37034" lon="2.27112">
        <ele>130</ele>
        <time>2012-07-23T11:22:32Z</time>
      </trkpt>
      <trkpt lat="49.37031" lon="2.27116">
        <ele>130</ele>
        <time>2012-07-23T11:22:37Z</time>
      </trkpt>
      <trkpt lat="49.37021" lon="2.27114">
        <ele>131</ele>
        <time>2012-07-23T11:22:46Z</time>
      </trkpt>
      <trkpt lat="49.3701" lon="2.2712">
        <ele>131</ele>
        <time>2012-07-23T11:22:51Z</time>
      </trkpt>
      <trkpt lat="49.37002" lon="2.27123">
        <ele>131</ele>
        <time>2012-07-23T11:22:56Z</time>
      </trkpt>
      <trkpt lat="49.36994" lon="2.27122">
        <ele>133</ele>
        <time>2012-07-23T11:23:03Z</time>
      </trkpt>
      <trkpt lat="49.36987" lon="2.27124">
        <ele>133</ele>
        <time>2012-07-23T11:23:08Z</time>
      </trkpt>
      <trkpt lat="49.36974" lon="2.27133">
        <ele>132</ele>
        <time>2012-07-23T11:23:16Z</time>
      </trkpt>
      <trkpt lat="49.36968" lon="2.27142">
        <ele>132</ele>
        <time>2012-07-23T11:23:19Z</time>
      </trkpt>
      <trkpt lat="49.36957" lon="2.27164">
        <ele>132</ele>
        <time>2012-07-23T11:23:27Z</time>
      </trkpt>
      <trkpt lat="49.36949" lon="2.27175">
        <ele>131</ele>
        <time>2012-07-23T11:23:34Z</time>
      </trkpt>
      <trkpt lat="49.36943" lon="2.27183">
        <ele>131</ele>
        <time>2012-07-23T11:23:37Z</time>
      </trkpt>
      <trkpt lat="49.36928" lon="2.27199">
        <ele>132</ele>
        <time>2012-07-23T11:23:45Z</time>
      </trkpt>
      <trkpt lat="49.36916" lon="2.2721">
        <ele>133</ele>
        <time>2012-07-23T11:23:51Z</time>
      </trkpt>
      <trkpt lat="49.36904" lon="2.27225">
        <ele>134</ele>
        <time>2012-07-23T11:23:57Z</time>
      </trkpt>
      <trkpt lat="49.36892" lon="2.27242">
        <ele>134</ele>
        <time>2012-07-23T11:24:04Z</time>
      </trkpt>
      <trkpt lat="49.36878" lon="2.2726">
        <ele>135</ele>
        <time>2012-07-23T11:24:11Z</time>
      </trkpt>
      <trkpt lat="49.36864" lon="2.27275">
        <ele>136</ele>
        <time>2012-07-23T11:24:17Z</time>
      </trkpt>
      <trkpt lat="49.36851" lon="2.27286">
        <ele>136</ele>
        <time>2012-07-23T11:24:22Z</time>
      </trkpt>
      <trkpt lat="49.36837" lon="2.27298">
        <ele>136</ele>
        <time>2012-07-23T11:24:29Z</time>
      </trkpt>
      <trkpt lat="49.36827" lon="2.27305">
        <ele>137</ele>
        <time>2012-07-23T11:24:34Z</time>
      </trkpt>
      <trkpt lat="49.36816" lon="2.27314">
        <ele>137</ele>
        <time>2012-07-23T11:24:41Z</time>
      </trkpt>
      <trkpt lat="49.36802" lon="2.27323">
        <ele>137</ele>
        <time>2012-07-23T11:24:46Z</time>
      </trkpt>
      <trkpt lat="49.36789" lon="2.27332">
        <ele>136</ele>
        <time>2012-07-23T11:24:52Z</time>
      </trkpt>
      <trkpt lat="49.36774" lon="2.27344">
        <ele>137</ele>
        <time>2012-07-23T11:24:58Z</time>
      </trkpt>
      <trkpt lat="49.3676" lon="2.27362">
        <ele>137</ele>
        <time>2012-07-23T11:25:05Z</time>
      </trkpt>
      <trkpt lat="49.36746" lon="2.27384">
        <ele>135</ele>
        <time>2012-07-23T11:25:10Z</time>
      </trkpt>
      <trkpt lat="49.36733" lon="2.27405">
        <ele>135</ele>
        <time>2012-07-23T11:25:16Z</time>
      </trkpt>
      <trkpt lat="49.36724" lon="2.27416">
        <ele>135</ele>
        <time>2012-07-23T11:25:22Z</time>
      </trkpt>
      <trkpt lat="49.36709" lon="2.27426">
        <ele>135</ele>
        <time>2012-07-23T11:25:28Z</time>
      </trkpt>
      <trkpt lat="49.36692" lon="2.27437">
        <ele>134</ele>
        <time>2012-07-23T11:25:34Z</time>
      </trkpt>
      <trkpt lat="49.3666" lon="2.27459">
        <ele>131</ele>
        <time>2012-07-23T11:25:41Z</time>
      </trkpt>
      <trkpt lat="49.36636" lon="2.27474">
        <ele>130</ele>
        <time>2012-07-23T11:25:47Z</time>
      </trkpt>
      <trkpt lat="49.3662" lon="2.27484">
        <ele>129</ele>
        <time>2012-07-23T11:25:52Z</time>
      </trkpt>
      <trkpt lat="49.36609" lon="2.27485">
        <ele>129</ele>
        <time>2012-07-23T11:26:40Z</time>
      </trkpt>
      <trkpt lat="49.36601" lon="2.27479">
        <ele>128</ele>
        <time>2012-07-23T11:26:45Z</time>
      </trkpt>
      <trkpt lat="49.36563" lon="2.2747">
        <ele>123</ele>
        <time>2012-07-23T11:26:51Z</time>
      </trkpt>
      <trkpt lat="49.36517" lon="2.27442">
        <ele>120</ele>
        <time>2012-07-23T11:27:01Z</time>
      </trkpt>
      <trkpt lat="49.36473" lon="2.27418">
        <ele>112</ele>
        <time>2012-07-23T11:27:07Z</time>
      </trkpt>
      <trkpt lat="49.36435" lon="2.27416">
        <ele>105</ele>
        <time>2012-07-23T11:27:12Z</time>
      </trkpt>
      <trkpt lat="49.364" lon="2.27427">
        <ele>101</ele>
        <time>2012-07-23T11:27:19Z</time>
      </trkpt>
      <trkpt lat="49.36366" lon="2.27446">
        <ele>100</ele>
        <time>2012-07-23T11:27:24Z</time>
      </trkpt>
      <trkpt lat="49.36332" lon="2.27464">
        <ele>94</ele>
        <time>2012-07-23T11:27:31Z</time>
      </trkpt>
      <trkpt lat="49.36299" lon="2.27467">
        <ele>93</ele>
        <time>2012-07-23T11:27:35Z</time>
      </trkpt>
      <trkpt lat="49.3625" lon="2.27472">
        <ele>91</ele>
        <time>2012-07-23T11:27:42Z</time>
      </trkpt>
      <trkpt lat="49.36207" lon="2.27485">
        <ele>85</ele>
        <time>2012-07-23T11:27:49Z</time>
      </trkpt>
      <trkpt lat="49.36169" lon="2.27497">
        <ele>83</ele>
        <time>2012-07-23T11:27:54Z</time>
      </trkpt>
      <trkpt lat="49.36133" lon="2.27506">
        <ele>80</ele>
        <time>2012-07-23T11:28:00Z</time>
      </trkpt>
      <trkpt lat="49.36103" lon="2.2752">
        <ele>78</ele>
        <time>2012-07-23T11:28:07Z</time>
      </trkpt>
      <trkpt lat="49.36077" lon="2.27543">
        <ele>73</ele>
        <time>2012-07-23T11:28:13Z</time>
      </trkpt>
      <trkpt lat="49.36054" lon="2.27578">
        <ele>72</ele>
        <time>2012-07-23T11:28:20Z</time>
      </trkpt>
      <trkpt lat="49.36035" lon="2.27604">
        <ele>71</ele>
        <time>2012-07-23T11:28:26Z</time>
      </trkpt>
      <trkpt lat="49.36015" lon="2.27634">
        <ele>71</ele>
        <time>2012-07-23T11:28:31Z</time>
      </trkpt>
      <trkpt lat="49.35998" lon="2.27664">
        <ele>68</ele>
        <time>2012-07-23T11:28:38Z</time>
      </trkpt>
      <trkpt lat="49.35984" lon="2.27692">
        <ele>67</ele>
        <time>2012-07-23T11:28:43Z</time>
      </trkpt>
      <trkpt lat="49.35971" lon="2.27725">
        <ele>67</ele>
        <time>2012-07-23T11:28:49Z</time>
      </trkpt>
      <trkpt lat="49.35967" lon="2.27742">
        <ele>67</ele>
        <time>2012-07-23T11:28:56Z</time>
      </trkpt>
      <trkpt lat="49.35967" lon="2.27758">
        <ele>67</ele>
        <time>2012-07-23T11:29:00Z</time>
      </trkpt>
      <trkpt lat="49.35984" lon="2.27775">
        <ele>67</ele>
        <time>2012-07-23T11:29:07Z</time>
      </trkpt>
      <trkpt lat="49.36" lon="2.27783">
        <ele>71</ele>
        <time>2012-07-23T11:29:13Z</time>
      </trkpt>
      <trkpt lat="49.36015" lon="2.27793">
        <ele>72</ele>
        <time>2012-07-23T11:29:19Z</time>
      </trkpt>
      <trkpt lat="49.36032" lon="2.27806">
        <ele>72</ele>
        <time>2012-07-23T11:29:25Z</time>
      </trkpt>
      <trkpt lat="49.3604" lon="2.27826">
        <ele>73</ele>
        <time>2012-07-23T11:29:31Z</time>
      </trkpt>
      <trkpt lat="49.36039" lon="2.27841">
        <ele>72</ele>
        <time>2012-07-23T11:29:37Z</time>
      </trkpt>
      <trkpt lat="49.36042" lon="2.2786">
        <ele>72</ele>
        <time>2012-07-23T11:29:42Z</time>
      </trkpt>
      <trkpt lat="49.36052" lon="2.27901">
        <ele>72</ele>
        <time>2012-07-23T11:29:50Z</time>
      </trkpt>
      <trkpt lat="49.36062" lon="2.27937">
        <ele>71</ele>
        <time>2012-07-23T11:29:56Z</time>
      </trkpt>
      <trkpt lat="49.36069" lon="2.27958">
        <ele>71</ele>
        <time>2012-07-23T11:30:01Z</time>
      </trkpt>
      <trkpt lat="49.3608" lon="2.27986">
        <ele>72</ele>
        <time>2012-07-23T11:30:06Z</time>
      </trkpt>
      <trkpt lat="49.36094" lon="2.28022">
        <ele>74</ele>
        <time>2012-07-23T11:30:14Z</time>
      </trkpt>
      <trkpt lat="49.36104" lon="2.28046">
        <ele>75</ele>
        <time>2012-07-23T11:30:20Z</time>
      </trkpt>
      <trkpt lat="49.36117" lon="2.28071">
        <ele>76</ele>
        <time>2012-07-23T11:30:27Z</time>
      </trkpt>
      <trkpt lat="49.36129" lon="2.28093">
        <ele>76</ele>
        <time>2012-07-23T11:30:33Z</time>
      </trkpt>
      <trkpt lat="49.36143" lon="2.28117">
        <ele>76</ele>
        <time>2012-07-23T11:30:38Z</time>
      </trkpt>
      <trkpt lat="49.36156" lon="2.28143">
        <ele>76</ele>
        <time>2012-07-23T11:30:45Z</time>
      </trkpt>
      <trkpt lat="49.36171" lon="2.28165">
        <ele>77</ele>
        <time>2012-07-23T11:30:51Z</time>
      </trkpt>
      <trkpt lat="49.36184" lon="2.28186">
        <ele>77</ele>
        <time>2012-07-23T11:30:56Z</time>
      </trkpt>
      <trkpt lat="49.36197" lon="2.28203">
        <ele>77</ele>
        <time>2012-07-23T11:31:01Z</time>
      </trkpt>
      <trkpt lat="49.36217" lon="2.28229">
        <ele>77</ele>
        <time>2012-07-23T11:31:09Z</time>
      </trkpt>
      <trkpt lat="49.36201" lon="2.28267">
        <ele>74</ele>
        <time>2012-07-23T11:31:49Z</time>
      </trkpt>
      <trkpt lat="49.36184" lon="2.28303">
        <ele>74</ele>
        <time>2012-07-23T11:31:55Z</time>
      </trkpt>
      <trkpt lat="49.36165" lon="2.28343">
        <ele>70</ele>
        <time>2012-07-23T11:32:00Z</time>
      </trkpt>
      <trkpt lat="49.36147" lon="2.28383">
        <ele>70</ele>
        <time>2012-07-23T11:32:07Z</time>
      </trkpt>
      <trkpt lat="49.36132" lon="2.28413">
        <ele>69</ele>
        <time>2012-07-23T11:32:13Z</time>
      </trkpt>
      <trkpt lat="49.36116" lon="2.28432">
        <ele>69</ele>
        <time>2012-07-23T11:32:18Z</time>
      </trkpt>
      <trkpt lat="49.3609" lon="2.28473">
        <ele>69</ele>
        <time>2012-07-23T11:32:26Z</time>
      </trkpt>
      <trkpt lat="49.3608" lon="2.28494">
        <ele>70</ele>
        <time>2012-07-23T11:32:29Z</time>
      </trkpt>
      <trkpt lat="49.36057" lon="2.28514">
        <ele>69</ele>
        <time>2012-07-23T11:32:36Z</time>
      </trkpt>
      <trkpt lat="49.36038" lon="2.28527">
        <ele>69</ele>
        <time>2012-07-23T11:32:42Z</time>
      </trkpt>
      <trkpt lat="49.36013" lon="2.2856">
        <ele>68</ele>
        <time>2012-07-23T11:32:50Z</time>
      </trkpt>
      <trkpt lat="49.36" lon="2.28582">
        <ele>67</ele>
        <time>2012-07-23T11:32:55Z</time>
      </trkpt>
      <trkpt lat="49.35995" lon="2.28603">
        <ele>68</ele>
        <time>2012-07-23T11:33:00Z</time>
      </trkpt>
      <trkpt lat="49.36009" lon="2.28633">
        <ele>70</ele>
        <time>2012-07-23T11:33:07Z</time>
      </trkpt>
      <trkpt lat="49.36018" lon="2.28669">
        <ele>70</ele>
        <time>2012-07-23T11:33:13Z</time>
      </trkpt>
      <trkpt lat="49.36013" lon="2.28706">
        <ele>70</ele>
        <time>2012-07-23T11:33:20Z</time>
      </trkpt>
      <trkpt lat="49.36004" lon="2.28736">
        <ele>71</ele>
        <time>2012-07-23T11:33:25Z</time>
      </trkpt>
      <trkpt lat="49.35998" lon="2.2876">
        <ele>72</ele>
        <time>2012-07-23T11:33:32Z</time>
      </trkpt>
      <trkpt lat="49.35993" lon="2.28786">
        <ele>73</ele>
        <time>2012-07-23T11:33:38Z</time>
      </trkpt>
      <trkpt lat="49.36" lon="2.28809">
        <ele>73</ele>
        <time>2012-07-23T11:33:43Z</time>
      </trkpt>
      <trkpt lat="49.36014" lon="2.28828">
        <ele>72</ele>
        <time>2012-07-23T11:33:51Z</time>
      </trkpt>
      <trkpt lat="49.36025" lon="2.28848">
        <ele>73</ele>
        <time>2012-07-23T11:33:56Z</time>
      </trkpt>
      <trkpt lat="49.36029" lon="2.28871">
        <ele>74</ele>
        <time>2012-07-23T11:34:03Z</time>
      </trkpt>
      <trkpt lat="49.36032" lon="2.28893">
        <ele>74</ele>
        <time>2012-07-23T11:34:08Z</time>
      </trkpt>
      <trkpt lat="49.36033" lon="2.2892">
        <ele>78</ele>
        <time>2012-07-23T11:34:14Z</time>
      </trkpt>
      <trkpt lat="49.36035" lon="2.28939">
        <ele>78</ele>
        <time>2012-07-23T11:34:18Z</time>
      </trkpt>
      <trkpt lat="49.36033" lon="2.28958">
        <ele>79</ele>
        <time>2012-07-23T11:34:26Z</time>
      </trkpt>
      <trkpt lat="49.36031" lon="2.2897">
        <ele>80</ele>
        <time>2012-07-23T11:34:31Z</time>
      </trkpt>
      <trkpt lat="49.36029" lon="2.28996">
        <ele>80</ele>
        <time>2012-07-23T11:34:39Z</time>
      </trkpt>
      <trkpt lat="49.3603" lon="2.29014">
        <ele>85</ele>
        <time>2012-07-23T11:34:44Z</time>
      </trkpt>
      <trkpt lat="49.36032" lon="2.29022">
        <ele>85</ele>
        <time>2012-07-23T11:34:49Z</time>
      </trkpt>
      <trkpt lat="49.36032" lon="2.29032">
        <ele>86</ele>
        <time>2012-07-23T11:34:56Z</time>
      </trkpt>
      <trkpt lat="49.36034" lon="2.29047">
        <ele>87</ele>
        <time>2012-07-23T11:35:02Z</time>
      </trkpt>
      <trkpt lat="49.36034" lon="2.29057">
        <ele>87</ele>
        <time>2012-07-23T11:35:08Z</time>
      </trkpt>
      <trkpt lat="49.36035" lon="2.29076">
        <ele>88</ele>
        <time>2012-07-23T11:35:14Z</time>
      </trkpt>
      <trkpt lat="49.36036" lon="2.29094">
        <ele>93</ele>
        <time>2012-07-23T11:35:22Z</time>
      </trkpt>
      <trkpt lat="49.36037" lon="2.29104">
        <ele>94</ele>
        <time>2012-07-23T11:35:26Z</time>
      </trkpt>
      <trkpt lat="49.36039" lon="2.29118">
        <ele>95</ele>
        <time>2012-07-23T11:35:34Z</time>
      </trkpt>
      <trkpt lat="49.36036" lon="2.29127">
        <ele>95</ele>
        <time>2012-07-23T11:35:39Z</time>
      </trkpt>
      <trkpt lat="49.36036" lon="2.29133">
        <ele>95</ele>
        <time>2012-07-23T11:35:43Z</time>
      </trkpt>
      <trkpt lat="49.36038" lon="2.29153">
        <ele>96</ele>
        <time>2012-07-23T11:35:52Z</time>
      </trkpt>
      <trkpt lat="49.36038" lon="2.29168">
        <ele>102</ele>
        <time>2012-07-23T11:35:57Z</time>
      </trkpt>
      <trkpt lat="49.3604" lon="2.29179">
        <ele>102</ele>
        <time>2012-07-23T11:36:02Z</time>
      </trkpt>
      <trkpt lat="49.3604" lon="2.29186">
        <ele>102</ele>
        <time>2012-07-23T11:36:08Z</time>
      </trkpt>
      <trkpt lat="49.36041" lon="2.29201">
        <ele>103</ele>
        <time>2012-07-23T11:36:16Z</time>
      </trkpt>
      <trkpt lat="49.36041" lon="2.29213">
        <ele>103</ele>
        <time>2012-07-23T11:36:21Z</time>
      </trkpt>
      <trkpt lat="49.36044" lon="2.29226">
        <ele>104</ele>
        <time>2012-07-23T11:36:28Z</time>
      </trkpt>
      <trkpt lat="49.36045" lon="2.29234">
        <ele>104</ele>
        <time>2012-07-23T11:36:31Z</time>
      </trkpt>
      <trkpt lat="49.36046" lon="2.29251">
        <ele>109</ele>
        <time>2012-07-23T11:36:44Z</time>
      </trkpt>
      <trkpt lat="49.36047" lon="2.29259">
        <ele>109</ele>
        <time>2012-07-23T11:36:48Z</time>
      </trkpt>
      <trkpt lat="49.36051" lon="2.29268">
        <ele>109</ele>
        <time>2012-07-23T11:36:54Z</time>
      </trkpt>
      <trkpt lat="49.3605" lon="2.29276">
        <ele>109</ele>
        <time>2012-07-23T11:37:01Z</time>
      </trkpt>
      <trkpt lat="49.36056" lon="2.29285">
        <ele>110</ele>
        <time>2012-07-23T11:37:06Z</time>
      </trkpt>
      <trkpt lat="49.36061" lon="2.293">
        <ele>110</ele>
        <time>2012-07-23T11:37:14Z</time>
      </trkpt>
      <trkpt lat="49.3607" lon="2.2934">
        <ele>113</ele>
        <time>2012-07-23T11:37:50Z</time>
      </trkpt>
      <trkpt lat="49.36076" lon="2.29346">
        <ele>113</ele>
        <time>2012-07-23T11:37:58Z</time>
      </trkpt>
      <trkpt lat="49.36086" lon="2.29358">
        <ele>114</ele>
        <time>2012-07-23T11:38:13Z</time>
      </trkpt>
      <trkpt lat="49.36088" lon="2.29365">
        <ele>114</ele>
        <time>2012-07-23T11:38:18Z</time>
      </trkpt>
      <trkpt lat="49.36093" lon="2.29372">
        <ele>115</ele>
        <time>2012-07-23T11:38:27Z</time>
      </trkpt>
      <trkpt lat="49.36098" lon="2.29381">
        <ele>115</ele>
        <time>2012-07-23T11:38:33Z</time>
      </trkpt>
      <trkpt lat="49.36102" lon="2.29389">
        <ele>115</ele>
        <time>2012-07-23T11:38:38Z</time>
      </trkpt>
      <trkpt lat="49.36103" lon="2.29396">
        <ele>115</ele>
        <time>2012-07-23T11:38:44Z</time>
      </trkpt>
      <trkpt lat="49.36109" lon="2.29404">
        <ele>116</ele>
        <time>2012-07-23T11:38:51Z</time>
      </trkpt>
      <trkpt lat="49.36112" lon="2.29409">
        <ele>116</ele>
        <time>2012-07-23T11:38:54Z</time>
      </trkpt>
      <trkpt lat="49.36115" lon="2.29412">
        <ele>116</ele>
        <time>2012-07-23T11:40:27Z</time>
      </trkpt>
      <trkpt lat="49.36126" lon="2.29423">
        <ele>117</ele>
        <time>2012-07-23T11:40:42Z</time>
      </trkpt>
      <trkpt lat="49.36131" lon="2.29432">
        <ele>117</ele>
        <time>2012-07-23T11:40:50Z</time>
      </trkpt>
      <trkpt lat="49.36136" lon="2.2944">
        <ele>117</ele>
        <time>2012-07-23T11:40:55Z</time>
      </trkpt>
      <trkpt lat="49.3614" lon="2.29447">
        <ele>117</ele>
        <time>2012-07-23T11:41:00Z</time>
      </trkpt>
      <trkpt lat="49.36151" lon="2.29462">
        <ele>118</ele>
        <time>2012-07-23T11:41:15Z</time>
      </trkpt>
      <trkpt lat="49.3616" lon="2.29472">
        <ele>118</ele>
        <time>2012-07-23T11:41:22Z</time>
      </trkpt>
      <trkpt lat="49.36169" lon="2.29482">
        <ele>119</ele>
        <time>2012-07-23T11:41:29Z</time>
      </trkpt>
      <trkpt lat="49.36178" lon="2.2949">
        <ele>119</ele>
        <time>2012-07-23T11:41:35Z</time>
      </trkpt>
      <trkpt lat="49.36188" lon="2.29502">
        <ele>121</ele>
        <time>2012-07-23T11:41:40Z</time>
      </trkpt>
      <trkpt lat="49.36196" lon="2.29509">
        <ele>121</ele>
        <time>2012-07-23T11:41:45Z</time>
      </trkpt>
      <trkpt lat="49.36208" lon="2.29518">
        <ele>122</ele>
        <time>2012-07-23T11:41:53Z</time>
      </trkpt>
      <trkpt lat="49.36217" lon="2.29524">
        <ele>122</ele>
        <time>2012-07-23T11:41:58Z</time>
      </trkpt>
      <trkpt lat="49.36227" lon="2.29534">
        <ele>123</ele>
        <time>2012-07-23T11:42:04Z</time>
      </trkpt>
      <trkpt lat="49.36238" lon="2.29544">
        <ele>123</ele>
        <time>2012-07-23T11:42:11Z</time>
      </trkpt>
      <trkpt lat="49.36246" lon="2.29554">
        <ele>124</ele>
        <time>2012-07-23T11:42:17Z</time>
      </trkpt>
      <trkpt lat="49.36254" lon="2.29563">
        <ele>126</ele>
        <time>2012-07-23T11:42:23Z</time>
      </trkpt>
      <trkpt lat="49.36263" lon="2.29573">
        <ele>126</ele>
        <time>2012-07-23T11:42:30Z</time>
      </trkpt>
      <trkpt lat="49.36268" lon="2.29587">
        <ele>129</ele>
        <time>2012-07-23T11:42:35Z</time>
      </trkpt>
      <trkpt lat="49.36261" lon="2.2961">
        <ele>130</ele>
        <time>2012-07-23T11:42:41Z</time>
      </trkpt>
      <trkpt lat="49.36264" lon="2.29632">
        <ele>132</ele>
        <time>2012-07-23T11:42:48Z</time>
      </trkpt>
      <trkpt lat="49.3627" lon="2.29647">
        <ele>133</ele>
        <time>2012-07-23T11:42:51Z</time>
      </trkpt>
      <trkpt lat="49.36282" lon="2.29682">
        <ele>137</ele>
        <time>2012-07-23T11:42:59Z</time>
      </trkpt>
      <trkpt lat="49.36288" lon="2.29693">
        <ele>137</ele>
        <time>2012-07-23T11:43:04Z</time>
      </trkpt>
      <trkpt lat="49.36294" lon="2.29704">
        <ele>137</ele>
        <time>2012-07-23T11:43:11Z</time>
      </trkpt>
      <trkpt lat="49.36306" lon="2.29714">
        <ele>138</ele>
        <time>2012-07-23T11:43:17Z</time>
      </trkpt>
      <trkpt lat="49.36316" lon="2.29727">
        <ele>138</ele>
        <time>2012-07-23T11:43:22Z</time>
      </trkpt>
      <trkpt lat="49.36328" lon="2.29741">
        <ele>138</ele>
        <time>2012-07-23T11:43:28Z</time>
      </trkpt>
      <trkpt lat="49.36337" lon="2.29751">
        <ele>139</ele>
        <time>2012-07-23T11:43:33Z</time>
      </trkpt>
      <trkpt lat="49.36361" lon="2.29776">
        <ele>137</ele>
        <time>2012-07-23T11:43:42Z</time>
      </trkpt>
      <trkpt lat="49.36375" lon="2.29792">
        <ele>137</ele>
        <time>2012-07-23T11:43:48Z</time>
      </trkpt>
      <trkpt lat="49.36393" lon="2.29804">
        <ele>136</ele>
        <time>2012-07-23T11:43:54Z</time>
      </trkpt>
      <trkpt lat="49.36411" lon="2.29822">
        <ele>135</ele>
        <time>2012-07-23T11:44:01Z</time>
      </trkpt>
      <trkpt lat="49.36432" lon="2.29841">
        <ele>133</ele>
        <time>2012-07-23T11:44:06Z</time>
      </trkpt>
      <trkpt lat="49.36445" lon="2.2986">
        <ele>133</ele>
        <time>2012-07-23T11:44:11Z</time>
      </trkpt>
      <trkpt lat="49.36461" lon="2.29881">
        <ele>133</ele>
        <time>2012-07-23T11:44:18Z</time>
      </trkpt>
      <trkpt lat="49.36478" lon="2.29894">
        <ele>133</ele>
        <time>2012-07-23T11:44:24Z</time>
      </trkpt>
      <trkpt lat="49.36493" lon="2.29907">
        <ele>132</ele>
        <time>2012-07-23T11:44:29Z</time>
      </trkpt>
      <trkpt lat="49.36514" lon="2.29929">
        <ele>132</ele>
        <time>2012-07-23T11:44:36Z</time>
      </trkpt>
      <trkpt lat="49.36526" lon="2.29952">
        <ele>132</ele>
        <time>2012-07-23T11:44:42Z</time>
      </trkpt>
      <trkpt lat="49.36539" lon="2.29979">
        <ele>132</ele>
        <time>2012-07-23T11:44:48Z</time>
      </trkpt>
      <trkpt lat="49.36549" lon="2.29999">
        <ele>132</ele>
        <time>2012-07-23T11:44:53Z</time>
      </trkpt>
      <trkpt lat="49.36564" lon="2.30032">
        <ele>133</ele>
        <time>2012-07-23T11:45:01Z</time>
      </trkpt>
      <trkpt lat="49.36583" lon="2.30053">
        <ele>134</ele>
        <time>2012-07-23T11:45:08Z</time>
      </trkpt>
      <trkpt lat="49.36595" lon="2.30069">
        <ele>136</ele>
        <time>2012-07-23T11:45:13Z</time>
      </trkpt>
      <trkpt lat="49.36607" lon="2.3011">
        <ele>135</ele>
        <time>2012-07-23T11:45:42Z</time>
      </trkpt>
      <trkpt lat="49.36615" lon="2.30141">
        <ele>135</ele>
        <time>2012-07-23T11:45:48Z</time>
      </trkpt>
      <trkpt lat="49.36625" lon="2.3017">
        <ele>134</ele>
        <time>2012-07-23T11:45:55Z</time>
      </trkpt>
      <trkpt lat="49.36629" lon="2.30184">
        <ele>134</ele>
        <time>2012-07-23T11:46:01Z</time>
      </trkpt>
      <trkpt lat="49.36639" lon="2.30194">
        <ele>134</ele>
        <time>2012-07-23T11:46:08Z</time>
      </trkpt>
      <trkpt lat="49.36651" lon="2.30204">
        <ele>134</ele>
        <time>2012-07-23T11:46:13Z</time>
      </trkpt>
      <trkpt lat="49.36646" lon="2.30244">
        <ele>134</ele>
        <time>2012-07-23T11:46:48Z</time>
      </trkpt>
      <trkpt lat="49.36648" lon="2.30261">
        <ele>134</ele>
        <time>2012-07-23T11:46:56Z</time>
      </trkpt>
      <trkpt lat="49.36649" lon="2.30286">
        <ele>133</ele>
        <time>2012-07-23T11:47:02Z</time>
      </trkpt>
      <trkpt lat="49.36654" lon="2.30307">
        <ele>133</ele>
        <time>2012-07-23T11:47:07Z</time>
      </trkpt>
      <trkpt lat="49.36663" lon="2.30341">
        <ele>133</ele>
        <time>2012-07-23T11:47:14Z</time>
      </trkpt>
      <trkpt lat="49.36669" lon="2.30363">
        <ele>134</ele>
        <time>2012-07-23T11:47:19Z</time>
      </trkpt>
      <trkpt lat="49.36682" lon="2.30402">
        <ele>133</ele>
        <time>2012-07-23T11:47:27Z</time>
      </trkpt>
      <trkpt lat="49.36698" lon="2.30443">
        <ele>132</ele>
        <time>2012-07-23T11:47:32Z</time>
      </trkpt>
      <trkpt lat="49.36713" lon="2.30479">
        <ele>132</ele>
        <time>2012-07-23T11:47:39Z</time>
      </trkpt>
      <trkpt lat="49.36724" lon="2.30496">
        <ele>132</ele>
        <time>2012-07-23T11:47:42Z</time>
      </trkpt>
      <trkpt lat="49.36745" lon="2.30544">
        <ele>127</ele>
        <time>2012-07-23T11:47:51Z</time>
      </trkpt>
      <trkpt lat="49.36747" lon="2.30558">
        <ele>126</ele>
        <time>2012-07-23T11:47:56Z</time>
      </trkpt>
      <trkpt lat="49.36759" lon="2.30586">
        <ele>124</ele>
        <time>2012-07-23T11:48:03Z</time>
      </trkpt>
      <trkpt lat="49.3678" lon="2.30592">
        <ele>123</ele>
        <time>2012-07-23T11:48:08Z</time>
      </trkpt>
      <trkpt lat="49.368" lon="2.30602">
        <ele>123</ele>
        <time>2012-07-23T11:48:14Z</time>
      </trkpt>
      <trkpt lat="49.36811" lon="2.30616">
        <ele>122</ele>
        <time>2012-07-23T11:48:19Z</time>
      </trkpt>
      <trkpt lat="49.36826" lon="2.3066">
        <ele>117</ele>
        <time>2012-07-23T11:48:28Z</time>
      </trkpt>
      <trkpt lat="49.36866" lon="2.30684">
        <ele>110</ele>
        <time>2012-07-23T11:48:33Z</time>
      </trkpt>
      <trkpt lat="49.36887" lon="2.3066">
        <ele>118</ele>
        <time>2012-07-23T11:48:39Z</time>
      </trkpt>
      <trkpt lat="49.36907" lon="2.30659">
        <ele>116</ele>
        <time>2012-07-23T11:48:43Z</time>
      </trkpt>
      <trkpt lat="49.36923" lon="2.30676">
        <ele>111</ele>
        <time>2012-07-23T11:48:50Z</time>
      </trkpt>
      <trkpt lat="49.36952" lon="2.3071">
        <ele>108</ele>
        <time>2012-07-23T11:48:57Z</time>
      </trkpt>
      <trkpt lat="49.36974" lon="2.30756">
        <ele>100</ele>
        <time>2012-07-23T11:49:02Z</time>
      </trkpt>
      <trkpt lat="49.3701" lon="2.30782">
        <ele>100</ele>
        <time>2012-07-23T11:49:08Z</time>
      </trkpt>
      <trkpt lat="49.37047" lon="2.30826">
        <ele>98</ele>
        <time>2012-07-23T11:49:15Z</time>
      </trkpt>
      <trkpt lat="49.37072" lon="2.30858">
        <ele>94</ele>
        <time>2012-07-23T11:49:21Z</time>
      </trkpt>
      <trkpt lat="49.3709" lon="2.30889">
        <ele>98</ele>
        <time>2012-07-23T11:49:27Z</time>
      </trkpt>
      <trkpt lat="49.37095" lon="2.30918">
        <ele>95</ele>
        <time>2012-07-23T11:49:34Z</time>
      </trkpt>
      <trkpt lat="49.37099" lon="2.30944">
        <ele>96</ele>
        <time>2012-07-23T11:49:41Z</time>
      </trkpt>
      <trkpt lat="49.37105" lon="2.3097">
        <ele>96</ele>
        <time>2012-07-23T11:49:46Z</time>
      </trkpt>
      <trkpt lat="49.37113" lon="2.31015">
        <ele>96</ele>
        <time>2012-07-23T11:49:52Z</time>
      </trkpt>
      <trkpt lat="49.37119" lon="2.31068">
        <ele>97</ele>
        <time>2012-07-23T11:49:59Z</time>
      </trkpt>
      <trkpt lat="49.3712" lon="2.31127">
        <ele>95</ele>
        <time>2012-07-23T11:50:05Z</time>
      </trkpt>
      <trkpt lat="49.37125" lon="2.3116">
        <ele>95</ele>
        <time>2012-07-23T11:50:08Z</time>
      </trkpt>
      <trkpt lat="49.37149" lon="2.31195">
        <ele>95</ele>
        <time>2012-07-23T11:50:15Z</time>
      </trkpt>
      <trkpt lat="49.3717" lon="2.31223">
        <ele>99</ele>
        <time>2012-07-23T11:50:23Z</time>
      </trkpt>
      <trkpt lat="49.37194" lon="2.31251">
        <ele>99</ele>
        <time>2012-07-23T11:50:28Z</time>
      </trkpt>
      <trkpt lat="49.37205" lon="2.31269">
        <ele>101</ele>
        <time>2012-07-23T11:50:32Z</time>
      </trkpt>
      <trkpt lat="49.37214" lon="2.31291">
        <ele>102</ele>
        <time>2012-07-23T11:50:40Z</time>
      </trkpt>
      <trkpt lat="49.37245" lon="2.31316">
        <ele>105</ele>
        <time>2012-07-23T11:51:30Z</time>
      </trkpt>
      <trkpt lat="49.37259" lon="2.31329">
        <ele>110</ele>
        <time>2012-07-23T11:51:36Z</time>
      </trkpt>
      <trkpt lat="49.37269" lon="2.31347">
        <ele>112</ele>
        <time>2012-07-23T11:51:41Z</time>
      </trkpt>
      <trkpt lat="49.37286" lon="2.31358">
        <ele>113</ele>
        <time>2012-07-23T11:51:48Z</time>
      </trkpt>
      <trkpt lat="49.37297" lon="2.31362">
        <ele>113</ele>
        <time>2012-07-23T11:51:52Z</time>
      </trkpt>
      <trkpt lat="49.37309" lon="2.31366">
        <ele>113</ele>
        <time>2012-07-23T11:51:58Z</time>
      </trkpt>
      <trkpt lat="49.37334" lon="2.31369">
        <ele>116</ele>
        <time>2012-07-23T11:52:06Z</time>
      </trkpt>
      <trkpt lat="49.37341" lon="2.3137">
        <ele>116</ele>
        <time>2012-07-23T11:52:09Z</time>
      </trkpt>
      <trkpt lat="49.37358" lon="2.31364">
        <ele>116</ele>
        <time>2012-07-23T11:52:17Z</time>
      </trkpt>
      <trkpt lat="49.3738" lon="2.31354">
        <ele>116</ele>
        <time>2012-07-23T11:52:24Z</time>
      </trkpt>
      <trkpt lat="49.37396" lon="2.31346">
        <ele>115</ele>
        <time>2012-07-23T11:52:30Z</time>
      </trkpt>
      <trkpt lat="49.3741" lon="2.31335">
        <ele>114</ele>
        <time>2012-07-23T11:52:35Z</time>
      </trkpt>
      <trkpt lat="49.37417" lon="2.31318">
        <ele>114</ele>
        <time>2012-07-23T11:52:43Z</time>
      </trkpt>
      <trkpt lat="49.37424" lon="2.31311">
        <ele>114</ele>
        <time>2012-07-23T11:52:48Z</time>
      </trkpt>
      <trkpt lat="49.37436" lon="2.31295">
        <ele>115</ele>
        <time>2012-07-23T11:53:36Z</time>
      </trkpt>
      <trkpt lat="49.37444" lon="2.31283">
        <ele>115</ele>
        <time>2012-07-23T11:53:42Z</time>
      </trkpt>
      <trkpt lat="49.37447" lon="2.31271">
        <ele>115</ele>
        <time>2012-07-23T11:53:48Z</time>
      </trkpt>
      <trkpt lat="49.37442" lon="2.31266">
        <ele>115</ele>
        <time>2012-07-23T11:53:53Z</time>
      </trkpt>
      <trkpt lat="49.37449" lon="2.31264">
        <ele>115</ele>
        <time>2012-07-23T11:53:58Z</time>
      </trkpt>
      <trkpt lat="49.37469" lon="2.31261">
        <ele>115</ele>
        <time>2012-07-23T11:54:07Z</time>
      </trkpt>
      <trkpt lat="49.37489" lon="2.31262">
        <ele>114</ele>
        <time>2012-07-23T11:54:12Z</time>
      </trkpt>
      <trkpt lat="49.37503" lon="2.31263">
        <ele>116</ele>
        <time>2012-07-23T11:54:17Z</time>
      </trkpt>
      <trkpt lat="49.37518" lon="2.31267">
        <ele>117</ele>
        <time>2012-07-23T11:54:26Z</time>
      </trkpt>
      <trkpt lat="49.37529" lon="2.31268">
        <ele>118</ele>
        <time>2012-07-23T11:54:32Z</time>
      </trkpt>
      <trkpt lat="49.37538" lon="2.31269">
        <ele>119</ele>
        <time>2012-07-23T11:54:35Z</time>
      </trkpt>
      <trkpt lat="49.37551" lon="2.31275">
        <ele>119</ele>
        <time>2012-07-23T11:54:44Z</time>
      </trkpt>
      <trkpt lat="49.3756" lon="2.31274">
        <ele>120</ele>
        <time>2012-07-23T11:54:50Z</time>
      </trkpt>
      <trkpt lat="49.37567" lon="2.31271">
        <ele>120</ele>
        <time>2012-07-23T11:54:55Z</time>
      </trkpt>
      <trkpt lat="49.3758" lon="2.31267">
        <ele>120</ele>
        <time>2012-07-23T11:55:10Z</time>
      </trkpt>
      <trkpt lat="49.37589" lon="2.31261">
        <ele>123</ele>
        <time>2012-07-23T11:55:20Z</time>
      </trkpt>
      <trkpt lat="49.37597" lon="2.31258">
        <ele>124</ele>
        <time>2012-07-23T11:56:10Z</time>
      </trkpt>
      <trkpt lat="49.37612" lon="2.31255">
        <ele>126</ele>
        <time>2012-07-23T11:56:26Z</time>
      </trkpt>
      <trkpt lat="49.3762" lon="2.31254">
        <ele>126</ele>
        <time>2012-07-23T11:56:32Z</time>
      </trkpt>
      <trkpt lat="49.37626" lon="2.31251">
        <ele>127</ele>
        <time>2012-07-23T11:56:38Z</time>
      </trkpt>
      <trkpt lat="49.3764" lon="2.31241">
        <ele>129</ele>
        <time>2012-07-23T11:56:55Z</time>
      </trkpt>
      <trkpt lat="49.37649" lon="2.31241">
        <ele>130</ele>
        <time>2012-07-23T11:57:02Z</time>
      </trkpt>
      <trkpt lat="49.37658" lon="2.3124">
        <ele>130</ele>
        <time>2012-07-23T11:57:07Z</time>
      </trkpt>
      <trkpt lat="49.37672" lon="2.31239">
        <ele>133</ele>
        <time>2012-07-23T11:57:14Z</time>
      </trkpt>
      <trkpt lat="49.37679" lon="2.31237">
        <ele>134</ele>
        <time>2012-07-23T11:57:19Z</time>
      </trkpt>
      <trkpt lat="49.3769" lon="2.3123">
        <ele>135</ele>
        <time>2012-07-23T11:57:30Z</time>
      </trkpt>
      <trkpt lat="49.37698" lon="2.31229">
        <ele>135</ele>
        <time>2012-07-23T11:57:35Z</time>
      </trkpt>
      <trkpt lat="49.37708" lon="2.31224">
        <ele>136</ele>
        <time>2012-07-23T11:57:42Z</time>
      </trkpt>
      <trkpt lat="49.37714" lon="2.31221">
        <ele>136</ele>
        <time>2012-07-23T11:57:47Z</time>
      </trkpt>
      <trkpt lat="49.37724" lon="2.31207">
        <ele>137</ele>
        <time>2012-07-23T11:58:01Z</time>
      </trkpt>
      <trkpt lat="49.37732" lon="2.31196">
        <ele>137</ele>
        <time>2012-07-23T11:58:09Z</time>
      </trkpt>
      <trkpt lat="49.37738" lon="2.31192">
        <ele>137</ele>
        <time>2012-07-23T11:58:16Z</time>
      </trkpt>
      <trkpt lat="49.3775" lon="2.31187">
        <ele>141</ele>
        <time>2012-07-23T11:58:24Z</time>
      </trkpt>
      <trkpt lat="49.37756" lon="2.31177">
        <ele>140</ele>
        <time>2012-07-23T11:58:31Z</time>
      </trkpt>
      <trkpt lat="49.37761" lon="2.31166">
        <ele>141</ele>
        <time>2012-07-23T11:58:36Z</time>
      </trkpt>
      <trkpt lat="49.37766" lon="2.31155">
        <ele>142</ele>
        <time>2012-07-23T11:58:43Z</time>
      </trkpt>
      <trkpt lat="49.37776" lon="2.31147">
        <ele>143</ele>
        <time>2012-07-23T11:58:48Z</time>
      </trkpt>
      <trkpt lat="49.37786" lon="2.3114">
        <ele>144</ele>
        <time>2012-07-23T11:58:56Z</time>
      </trkpt>
      <trkpt lat="49.3779" lon="2.31136">
        <ele>145</ele>
        <time>2012-07-23T11:59:01Z</time>
      </trkpt>
      <trkpt lat="49.37794" lon="2.31132">
        <ele>145</ele>
        <time>2012-07-23T11:59:06Z</time>
      </trkpt>
      <trkpt lat="49.37806" lon="2.3113">
        <ele>145</ele>
        <time>2012-07-23T12:00:36Z</time>
      </trkpt>
      <trkpt lat="49.37808" lon="2.31144">
        <ele>145</ele>
        <time>2012-07-23T12:02:23Z</time>
      </trkpt>
      <trkpt lat="49.37813" lon="2.31158">
        <ele>146</ele>
        <time>2012-07-23T12:02:29Z</time>
      </trkpt>
      <trkpt lat="49.37816" lon="2.31171">
        <ele>145</ele>
        <time>2012-07-23T12:02:33Z</time>
      </trkpt>
      <trkpt lat="49.37819" lon="2.31207">
        <ele>143</ele>
        <time>2012-07-23T12:02:41Z</time>
      </trkpt>
      <trkpt lat="49.37819" lon="2.31227">
        <ele>143</ele>
        <time>2012-07-23T12:02:45Z</time>
      </trkpt>
      <trkpt lat="49.3782" lon="2.31267">
        <ele>142</ele>
        <time>2012-07-23T12:02:53Z</time>
      </trkpt>
      <trkpt lat="49.37821" lon="2.31293">
        <ele>142</ele>
        <time>2012-07-23T12:02:58Z</time>
      </trkpt>
      <trkpt lat="49.37822" lon="2.31328">
        <ele>142</ele>
        <time>2012-07-23T12:03:05Z</time>
      </trkpt>
      <trkpt lat="49.37826" lon="2.31365">
        <ele>143</ele>
        <time>2012-07-23T12:03:11Z</time>
      </trkpt>
      <trkpt lat="49.37833" lon="2.31406">
        <ele>143</ele>
        <time>2012-07-23T12:03:17Z</time>
      </trkpt>
      <trkpt lat="49.3784" lon="2.31436">
        <ele>145</ele>
        <time>2012-07-23T12:03:22Z</time>
      </trkpt>
      <trkpt lat="49.37845" lon="2.31475">
        <ele>146</ele>
        <time>2012-07-23T12:03:29Z</time>
      </trkpt>
      <trkpt lat="49.3785" lon="2.315">
        <ele>146</ele>
        <time>2012-07-23T12:03:34Z</time>
      </trkpt>
      <trkpt lat="49.37853" lon="2.31522">
        <ele>146</ele>
        <time>2012-07-23T12:03:39Z</time>
      </trkpt>
      <trkpt lat="49.37859" lon="2.31554">
        <ele>146</ele>
        <time>2012-07-23T12:03:46Z</time>
      </trkpt>
      <trkpt lat="49.37865" lon="2.31586">
        <ele>147</ele>
        <time>2012-07-23T12:03:53Z</time>
      </trkpt>
      <trkpt lat="49.37872" lon="2.31614">
        <ele>147</ele>
        <time>2012-07-23T12:03:59Z</time>
      </trkpt>
      <trkpt lat="49.37877" lon="2.31637">
        <ele>147</ele>
        <time>2012-07-23T12:04:05Z</time>
      </trkpt>
      <trkpt lat="49.3788" lon="2.31664">
        <ele>147</ele>
        <time>2012-07-23T12:04:11Z</time>
      </trkpt>
      <trkpt lat="49.37885" lon="2.31691">
        <ele>147</ele>
        <time>2012-07-23T12:04:17Z</time>
      </trkpt>
      <trkpt lat="49.37888" lon="2.31721">
        <ele>148</ele>
        <time>2012-07-23T12:04:23Z</time>
      </trkpt>
      <trkpt lat="49.3789" lon="2.31739">
        <ele>148</ele>
        <time>2012-07-23T12:04:27Z</time>
      </trkpt>
      <trkpt lat="49.37893" lon="2.31774">
        <ele>148</ele>
        <time>2012-07-23T12:04:34Z</time>
      </trkpt>
      <trkpt lat="49.37899" lon="2.31802">
        <ele>148</ele>
        <time>2012-07-23T12:04:39Z</time>
      </trkpt>
      <trkpt lat="49.37908" lon="2.31837">
        <ele>149</ele>
        <time>2012-07-23T12:04:47Z</time>
      </trkpt>
      <trkpt lat="49.37912" lon="2.31849">
        <ele>149</ele>
        <time>2012-07-23T12:04:51Z</time>
      </trkpt>
      <trkpt lat="49.37926" lon="2.3187">
        <ele>152</ele>
        <time>2012-07-23T12:04:59Z</time>
      </trkpt>
      <trkpt lat="49.37945" lon="2.31888">
        <ele>153</ele>
        <time>2012-07-23T12:05:05Z</time>
      </trkpt>
      <trkpt lat="49.37956" lon="2.31903">
        <ele>154</ele>
        <time>2012-07-23T12:05:09Z</time>
      </trkpt>
      <trkpt lat="49.37979" lon="2.31934">
        <ele>156</ele>
        <time>2012-07-23T12:05:17Z</time>
      </trkpt>
      <trkpt lat="49.37988" lon="2.31953">
        <ele>155</ele>
        <time>2012-07-23T12:05:22Z</time>
      </trkpt>
      <trkpt lat="49.37983" lon="2.31985">
        <ele>154</ele>
        <time>2012-07-23T12:05:29Z</time>
      </trkpt>
      <trkpt lat="49.37977" lon="2.32015">
        <ele>153</ele>
        <time>2012-07-23T12:05:34Z</time>
      </trkpt>
      <trkpt lat="49.3797" lon="2.32054">
        <ele>153</ele>
        <time>2012-07-23T12:05:40Z</time>
      </trkpt>
      <trkpt lat="49.37962" lon="2.32098">
        <ele>152</ele>
        <time>2012-07-23T12:05:47Z</time>
      </trkpt>
      <trkpt lat="49.37958" lon="2.32145">
        <ele>151</ele>
        <time>2012-07-23T12:05:54Z</time>
      </trkpt>
      <trkpt lat="49.37954" lon="2.32171">
        <ele>151</ele>
        <time>2012-07-23T12:05:59Z</time>
      </trkpt>
      <trkpt lat="49.37946" lon="2.32198">
        <ele>152</ele>
        <time>2012-07-23T12:06:06Z</time>
      </trkpt>
      <trkpt lat="49.37942" lon="2.32227">
        <ele>152</ele>
        <time>2012-07-23T12:06:12Z</time>
      </trkpt>
      <trkpt lat="49.37938" lon="2.32254">
        <ele>153</ele>
        <time>2012-07-23T12:06:18Z</time>
      </trkpt>
      <trkpt lat="49.37935" lon="2.32273">
        <ele>153</ele>
        <time>2012-07-23T12:06:24Z</time>
      </trkpt>
      <trkpt lat="49.37933" lon="2.32293">
        <ele>153</ele>
        <time>2012-07-23T12:06:33Z</time>
      </trkpt>
      <trkpt lat="49.37933" lon="2.32306">
        <ele>152</ele>
        <time>2012-07-23T12:06:37Z</time>
      </trkpt>
    </trkseg>
  </trk>
</gpx>